Flight Track Log - Related Links

Times and Time Zones

All times are in EDT time to prevent confusion due to time zone crossing. See the YZR7462 flight status page for this flight to view local times or setup timezone preferences in your user account.

Time Position Orientation Groundspeed Altitude Reporting Facility
EDT Latitude Longitude Course Direction KTS MPH feet Rate Location/Type
Sun 05:36:14 PM 33.9250 -118.5040 263° West 238 274 2,300  Level FlightAware ADS-B
Sun 05:36:38 PM 33.9220 -118.5390 264° West 261 300 2,800 1,714 Climbing FlightAware ADS-B
Sun 05:37:10 PM 33.9180 -118.5860 264° West 275 316 3,900 2,143 Climbing FlightAware ADS-B
Sun 05:37:34 PM 33.9150 -118.6220 264° West 280 322 4,800 2,400 Climbing FlightAware ADS-B
Sun 05:38:05 PM 33.9110 -118.6720 265° West 285 328 6,100 2,429 Climbing FlightAware ADS-B
Sun 05:38:16 PM 33.9100 -118.6890 266° West 286 329 6,500 1,953 Climbing FlightAware ADS-B
Sun 05:38:48 PM 33.9060 -118.7350 264° West 288 331 7,500 2,000 Climbing FlightAware ADS-B
Sun 05:38:58 PM 33.9050 -118.7530 266° West 297 342 7,900 2,526 Climbing FlightAware ADS-B
Sun 05:39:26 PM 33.9020 -118.8040 266° West 301 346 9,100 2,478 Climbing FlightAware ADS-B
Sun 05:39:44 PM 33.9000 -118.8330 265° West 304 350 9,800 2,222 Climbing FlightAware ADS-B
Sun 05:40:20 PM 33.8960 -118.8950 266° West 312 359 11,100 1,821 Climbing FlightAware ADS-B
Sun 05:40:40 PM 33.8970 -118.9300 272° West 328 377 11,500 1,304 Climbing FlightAware ADS-B
Sun 05:41:06 PM 33.9170 -118.9720 300° West 348 400 12,100 1,537 Climbing FlightAware ADS-B
Sun 05:42:02 PM 33.9800 -119.0540 313° West 377 434 13,600 1,670 Climbing FlightAware ADS-B
Sun 05:42:43 PM 34.0290 -119.1210 311° West 390 449 14,800 1,841 Climbing FlightAware ADS-B
Sun 05:43:30 PM 34.0900 -119.2030 312° West 413 475 16,300 1,862 Climbing FlightAware ADS-B
Sun 05:44:10 PM 34.1410 -119.2710 312° West 424 488 17,500 1,571 Climbing FlightAware ADS-B
Sun 05:44:54 PM 34.2020 -119.3530 312° West 447 514 18,500 1,571 Climbing FlightAware ADS-B
Sun 05:45:34 PM 34.2540 -119.4230 312° West 454 522 19,700 1,725 Climbing FlightAware ADS-B
Sun 05:46:14 PM 34.3140 -119.5030 312° West 469 540 20,800 1,560 Climbing FlightAware ADS-B
Sun 05:47:14 PM 34.4010 -119.6220 312° West 488 562 22,300 1,059 Climbing FlightAware ADS-B
Sun 05:47:56 PM 34.4570 -119.7000 311° West 494 568 22,600 1,800 Climbing FlightAware ADS-B
Sun 05:48:34 PM 34.5250 -119.7930 312° West 505 581 24,700 2,500 Climbing FlightAware ADS-B
Sun 05:49:20 PM 34.5960 -119.8870 313° West 510 587 26,100 1,800 Climbing FlightAware ADS-B
Sun 05:49:54 PM 34.6520 -119.9630 312° West 514 592 27,100 1,105 Climbing FlightAware ADS-B
Sun 05:50:36 PM 34.7100 -120.0420 312° West 516 594 27,500 1,685 Climbing FlightAware ADS-B
Sun 05:51:23 PM 34.7930 -120.1540 312° West 528 608 29,600 1,904 Climbing FlightAware ADS-B
Sun 05:52:20 PM 34.8780 -120.2700 312° West 522 601 30,800 1,706 Climbing FlightAware ADS-B
Sun 05:53:05 PM 34.9510 -120.3700 312° West 514 592 32,500 1,259 Climbing FlightAware ADS-B
Sun 05:53:41 PM 34.9980 -120.4370 311° West 514 592 32,500 2,370 Level FlightAware ADS-B
Sun 05:54:26 PM 35.0840 -120.5510 313° West 506 582 35,700 2,471 Climbing FlightAware ADS-B
Sun 05:55:06 PM 35.1470 -120.6380 312° West 506 582 36,000 217 Climbing FlightAware ADS-B
Sun 05:55:49 PM 35.2100 -120.7250 312° West 506 582 36,000  Level FlightAware ADS-B
Sun 05:56:32 PM 35.2790 -120.8200 312° West 506 582 36,000  Level FlightAware ADS-B
Sun 05:57:16 PM 35.3520 -120.9120 314° West 509 586 36,000  Level FlightAware ADS-B
Sun 05:57:53 PM 35.4160 -120.9790 320° Northwest 510 587 36,000  Level FlightAware ADS-B
Sun 05:58:39 PM 35.5016 -121.0690 319° Northwest 511 588 36,000  Level FlightAware ADS-B
Sun 05:59:10 PM 35.5554 -121.1280 318° Northwest 511 588 36,000  Level FlightAware ADS-B
Sun 05:59:43 PM 35.6136 -121.1930 318° Northwest 510 587 36,000  Level FlightAware ADS-B
Sun 06:00:29 PM 35.6630 -121.2480 318° Northwest 509 586 36,000  Level FlightAware ADS-B
Sun 06:01:18 PM 35.7780 -121.3780 317° Northwest 509 586 36,000  Level FlightAware ADS-B
Sun 06:01:58 PM 35.8460 -121.4530 318° Northwest 508 585 36,000  Level FlightAware ADS-B
Sun 06:02:38 PM 35.9150 -121.5310 318° Northwest 507 583 36,000  Level FlightAware ADS-B
Sun 06:03:18 PM 35.9850 -121.6100 318° Northwest 506 582 36,000  Level FlightAware ADS-B
Sun 06:04:16 PM 36.0820 -121.7190 318° Northwest 505 581 36,000  Level FlightAware ADS-B
Sun 06:04:57 PM 36.1566 -121.8030 318° Northwest 505 581 36,000  Level FlightAware ADS-B
Sun 06:05:28 PM 36.2097 -121.8630 318° Northwest 506 582 36,000  Level FlightAware ADS-B
Sun 06:06:28 PM 36.3134 -121.9810 317° Northwest 506 582 36,000  Level FlightAware ADS-B
Sun 06:07:02 PM 36.3730 -122.0500 317° Northwest 507 583 36,000  Level FlightAware ADS-B
Sun 06:07:42 PM 36.4420 -122.1280 318° Northwest 508 585 36,000  Level FlightAware ADS-B
Sun 06:08:33 PM 36.5292 -122.2280 317° Northwest 507 583 36,000  Level FlightAware ADS-B
Sun 06:09:04 PM 36.5835 -122.2910 317° Northwest 507 583 36,000  Level FlightAware ADS-B
Sun 06:09:45 PM 36.6523 -122.3700 317° Northwest 508 585 36,000  Level FlightAware ADS-B
Sun 06:10:17 PM 36.7081 -122.4350 317° Northwest 509 586 36,000  Level FlightAware ADS-B
Sun 06:10:48 PM 36.7618 -122.4970 317° Northwest 509 586 36,000  Level FlightAware ADS-B
Sun 06:11:36 PM 36.8436 -122.5920 317° Northwest 511 588 36,000  Level FlightAware ADS-B
Sun 06:12:30 PM 36.9370 -122.7000 317° Northwest 512 589 36,000  Level FlightAware ADS-B
Sun 06:12:43 PM 36.9602 -122.7270 317° Northwest 512 589 36,000  Level FlightAware ADS-B
Sun 06:13:13 PM 37.0121 -122.7880 317° Northwest 513 590 36,000  Level FlightAware ADS-B
Sun 06:14:00 PM 37.0942 -122.8840 317° Northwest 514 592 36,000  Level FlightAware ADS-B
Sun 06:14:35 PM 37.1530 -122.9530 317° Northwest 515 593 36,000  Level FlightAware ADS-B
Sun 06:15:14 PM 37.2220 -123.0340 317° Northwest 516 594 36,000  Level FlightAware ADS-B
Sun 06:17:49 PM 37.4720 -123.3310 317° Northwest 516 594 36,000  Level FlightAware ADS-B
Sun 06:18:37 PM 37.5720 -123.4500 317° Northwest 514 592 36,000  Level FlightAware ADS-B
Sun 06:19:17 PM 37.6410 -123.5320 317° Northwest 515 593 36,000  Level FlightAware ADS-B
Sun 06:20:14 PM 37.7310 -123.6410 316° Northwest 514 592 36,000  Level FlightAware ADS-B
Sun 06:20:57 PM 37.8140 -123.7410 316° Northwest 509 586 36,000  Level FlightAware ADS-B
Sun 06:21:37 PM 37.8840 -123.8240 317° Northwest 507 583 36,000  Level FlightAware ADS-B
Sun 06:22:21 PM 37.9570 -123.9140 316° Northwest 504 580 36,000  Level FlightAware ADS-B
Sun 06:23:01 PM 38.0250 -123.9960 316° Northwest 504 580 36,000  Level FlightAware ADS-B
Sun 06:23:45 PM 38.0970 -124.0840 316° Northwest 504 580 36,000  Level FlightAware ADS-B
Sun 06:24:25 PM 38.1640 -124.1660 316° Northwest 505 581 36,000  Level FlightAware ADS-B
Sun 06:25:09 PM 38.2370 -124.2550 316° Northwest 507 583 36,000  Level FlightAware ADS-B
Sun 06:26:02 PM 38.3200 -124.3590 316° Northwest 507 583 36,000  Level FlightAware ADS-B
Sun 06:26:38 PM 38.3710 -124.4240 315° West 507 583 36,000  Level FlightAware ADS-B
Sun 06:27:27 PM 38.4720 -124.5440 317° Northwest 507 583 36,000  Level FlightAware ADS-B
Sun 06:28:09 PM 38.5420 -124.6310 316° Northwest 507 583 36,000  Level FlightAware ADS-B
Sun 06:28:49 PM 38.6110 -124.7170 316° Northwest 506 582 36,000  Level FlightAware ADS-B
Sun 06:29:33 PM 38.6810 -124.8040 316° Northwest 504 580 36,000  Level FlightAware ADS-B
Sun 06:30:17 PM 38.7570 -124.9000 315° West 503 579 36,000  Level FlightAware ADS-B
Sun 06:30:57 PM 38.8220 -124.9820 316° Northwest 502 578 36,000  Level FlightAware ADS-B
Sun 06:31:40 PM 38.8930 -125.0710 316° Northwest 503 579 36,000  Level FlightAware ADS-B
Sun 06:32:21 PM 38.9600 -125.1550 316° Northwest 503 579 36,000  Level FlightAware ADS-B
Sun 06:33:05 PM 39.0340 -125.2490 315° West 504 580 36,000  Level FlightAware ADS-B
Sun 06:33:45 PM 39.1020 -125.3350 316° Northwest 505 581 36,000  Level FlightAware ADS-B
Sun 06:34:19 PM 39.1560 -125.4040 315° West 505 581 36,000  Level FlightAware ADS-B
Sun 06:35:10 PM 39.2270 -125.4960 315° West 505 581 36,000  Level FlightAware ADS-B
Sun 06:35:46 PM 39.2780 -125.5620 315° West 505 581 36,000  Level FlightAware ADS-B
Sun 06:36:34 PM 39.3450 -125.6490 315° West 505 581 36,000  Level FlightAware ADS-B
Sun 06:37:11 PM 39.3970 -125.7160 315° West 505 581 36,000  Level FlightAware ADS-B
Sun 06:37:59 PM 39.4650 -125.8030 315° West 505 581 36,000  Level FlightAware ADS-B
Sun 06:38:35 PM 39.5150 -125.8690 314° West 505 581 36,000  Level FlightAware ADS-B
Sun 06:39:35 PM 39.5990 -125.9780 315° West 505 581 36,000  Level FlightAware ADS-B
Sun 06:40:12 PM 39.6510 -126.0450 315° West 505 581 36,000  Level FlightAware ADS-B
Sun 06:41:00 PM 39.7190 -126.1330 315° West 505 581 36,000  Level FlightAware ADS-B
Sun 06:41:36 PM 39.7690 -126.1990 315° West 505 581 36,000  Level FlightAware ADS-B
Sun 06:42:24 PM 39.8370 -126.2870 315° West 505 581 36,000  Level FlightAware ADS-B
Sun 06:43:00 PM 39.8870 -126.3520 315° West 505 581 36,000  Level FlightAware ADS-B
Sun 06:43:48 PM 39.9550 -126.4400 315° West 505 581 36,000  Level FlightAware ADS-B
Sun 06:46:00 PM 40.1294 -126.7273 307° West  Level FlightAware Approximate
Sun 06:47:00 PM 40.2054 -126.8617 307° West  Level FlightAware Approximate
Sun 06:47:26 PM 40.3000 -127.0000 308° West 509 586 36,000  Level Oakland Oceanic (ODAPS)
Sun 06:48:00 PM 40.2813 -126.9964 306° West  Level FlightAware Approximate
Sun 06:49:00 PM 40.3602 -127.1283 308° West  Level FlightAware Approximate
Sun 06:50:00 PM 40.4390 -127.2604 308° West  Level FlightAware Approximate
Sun 06:51:00 PM 40.5177 -127.3928 308° West  Level FlightAware Approximate
Sun 06:52:00 PM 40.5968 -127.5264 308° West  Level FlightAware Approximate
Sun 06:53:00 PM 40.6757 -127.6603 308° West  Level FlightAware Approximate
Sun 06:54:00 PM 40.8161 -127.8803 308° West  Level FlightAware Approximate
Sun 06:55:00 PM 40.8941 -128.0155 307° West  Level FlightAware Approximate
Sun 06:56:00 PM 40.9720 -128.1511 307° West  Level FlightAware Approximate
Sun 06:57:00 PM 41.0496 -128.2870 307° West  Level FlightAware Approximate
Sun 06:58:00 PM 41.1272 -128.4232 307° West  Level FlightAware Approximate
Sun 06:59:00 PM 41.2045 -128.5597 307° West  Level FlightAware Approximate
Sun 07:00:00 PM 41.2817 -128.6965 307° West  Level FlightAware Approximate
Sun 07:01:00 PM 41.3588 -128.8337 307° West  Level FlightAware Approximate
Sun 07:02:00 PM 41.4357 -128.9712 307° West  Level FlightAware Approximate
Sun 07:03:00 PM 41.5124 -129.1090 307° West  Level FlightAware Approximate
Sun 07:04:00 PM 41.5889 -129.2472 307° West  Level FlightAware Approximate
Sun 07:05:00 PM 41.6653 -129.3857 306° West  Level FlightAware Approximate
Sun 07:06:00 PM 41.7415 -129.5245 306° West  Level FlightAware Approximate
Sun 07:07:00 PM 41.8176 -129.6636 306° West  Level FlightAware Approximate
Sun 07:08:00 PM 41.8935 -129.8031 306° West  Level FlightAware Approximate
Sun 07:08:20 PM 42.0000 -130.0000 296° West 480 552 36,000  Level Oakland Oceanic (ODAPS)
Sun 07:09:00 PM 41.9692 -129.9429 306° West  Level FlightAware Approximate
Sun 07:10:00 PM 42.0286 -130.0799 296° West  Level FlightAware Approximate
Sun 07:11:00 PM 42.0844 -130.2360 296° West  Level FlightAware Approximate
Sun 07:12:00 PM 42.1399 -130.3925 296° West  Level FlightAware Approximate
Sun 07:13:00 PM 42.1952 -130.5491 296° West  Level FlightAware Approximate
Sun 07:14:00 PM 42.3136 -130.8877 296° West  Level FlightAware Approximate
Sun 07:15:00 PM 42.3683 -131.0453 295° West  Level FlightAware Approximate
Sun 07:16:00 PM 42.4227 -131.2031 295° West  Level FlightAware Approximate
Sun 07:17:00 PM 42.4769 -131.3612 295° West  Level FlightAware Approximate
Sun 07:18:00 PM 42.5309 -131.5196 295° West  Level FlightAware Approximate
Sun 07:19:00 PM 42.5846 -131.6783 295° West  Level FlightAware Approximate
Sun 07:20:00 PM 42.6382 -131.8372 295° West  Level FlightAware Approximate
Sun 07:21:00 PM 42.6915 -131.9964 295° West  Level FlightAware Approximate
Sun 07:22:00 PM 42.7446 -132.1559 294° West  Level FlightAware Approximate
Sun 07:23:00 PM 42.7975 -132.3156 294° West  Level FlightAware Approximate
Sun 07:24:00 PM 42.8502 -132.4757 294° West  Level FlightAware Approximate
Sun 07:25:00 PM 42.9026 -132.6360 294° West  Level FlightAware Approximate
Sun 07:26:00 PM 42.9548 -132.7965 294° West  Level FlightAware Approximate
Sun 07:27:00 PM 43.0068 -132.9574 294° West  Level FlightAware Approximate
Sun 07:28:00 PM 43.0586 -133.1185 294° West  Level FlightAware Approximate
Sun 07:29:00 PM 43.1101 -133.2799 294° West  Level FlightAware Approximate
Sun 07:30:00 PM 43.1614 -133.4415 294° West  Level FlightAware Approximate
Sun 07:31:00 PM 43.2125 -133.6035 293° West  Level FlightAware Approximate
Sun 07:32:00 PM 43.2636 -133.7655 293° West  Level FlightAware Approximate
Sun 07:33:00 PM 43.3145 -133.9278 293° West  Level FlightAware Approximate
Sun 07:34:00 PM 43.3652 -134.0904 293° West  Level FlightAware Approximate
Sun 07:35:00 PM 43.4156 -134.2532 293° West  Level FlightAware Approximate
Sun 07:36:00 PM 43.4658 -134.4164 293° West  Level FlightAware Approximate
Sun 07:37:00 PM 43.5158 -134.5798 293° West  Level FlightAware Approximate
Sun 07:38:00 PM 43.5655 -134.7434 293° West  Level FlightAware Approximate
Sun 07:39:00 PM 43.6150 -134.9074 293° West  Level FlightAware Approximate
Sun 07:40:00 PM 43.6643 -135.0716 293° West  Level FlightAware Approximate
Sun 07:41:00 PM 43.7133 -135.2360 292° West  Level FlightAware Approximate
Sun 07:42:00 PM 43.7621 -135.4008 292° West  Level FlightAware Approximate
Sun 07:43:00 PM 43.8107 -135.5658 292° West  Level FlightAware Approximate
Sun 07:44:00 PM 43.8590 -135.7311 292° West  Level FlightAware Approximate
Sun 07:45:00 PM 43.9071 -135.8966 292° West  Level FlightAware Approximate
Sun 07:46:00 PM 43.9549 -136.0624 292° West  Level FlightAware Approximate
Sun 07:47:00 PM 44.0025 -136.2285 292° West  Level FlightAware Approximate
Sun 07:48:00 PM 44.0499 -136.3949 292° West  Level FlightAware Approximate
Sun 07:49:00 PM 44.0970 -136.5615 292° West  Level FlightAware Approximate
Sun 07:50:00 PM 44.1439 -136.7283 291° West  Level FlightAware Approximate
Sun 07:51:00 PM 44.1905 -136.8955 291° West  Level FlightAware Approximate
Sun 07:52:00 PM 44.2369 -137.0629 291° West  Level FlightAware Approximate
Sun 07:53:00 PM 44.2830 -137.2306 291° West  Level FlightAware Approximate
Sun 07:54:00 PM 44.3289 -137.3985 291° West  Level FlightAware Approximate
Sun 07:55:00 PM 44.3746 -137.5667 291° West  Level FlightAware Approximate
Sun 07:56:00 PM 44.4200 -137.7351 291° West  Level FlightAware Approximate
Sun 07:57:00 PM 44.4652 -137.9039 291° West  Level FlightAware Approximate
Sun 07:58:00 PM 44.5101 -138.0728 290° West  Level FlightAware Approximate
Sun 07:59:00 PM 44.5547 -138.2421 290° West  Level FlightAware Approximate
Sun 08:00:00 PM 44.5991 -138.4116 290° West  Level FlightAware Approximate
Sun 08:01:00 PM 44.6433 -138.5813 290° West  Level FlightAware Approximate
Sun 08:02:00 PM 44.6872 -138.7513 290° West  Level FlightAware Approximate
Sun 08:03:00 PM 44.7309 -138.9216 290° West  Level FlightAware Approximate
Sun 08:04:00 PM 44.7743 -139.0921 290° West  Level FlightAware Approximate
Sun 08:05:00 PM 44.8174 -139.2629 290° West  Level FlightAware Approximate
Sun 08:06:00 PM 44.8603 -139.4340 290° West  Level FlightAware Approximate
Sun 08:06:31 PM 45.0000 -140.0000 266° West 490 564 36,000  Level Oakland Oceanic (ODAPS)
Sun 08:07:00 PM 44.9030 -139.6053 289° West  Level FlightAware Approximate
Sun 08:08:00 PM 44.9453 -139.7768 289° West  Level FlightAware Approximate
Sun 08:09:00 PM 44.9875 -139.9486 289° West  Level FlightAware Approximate
Sun 08:10:00 PM 44.9927 -140.1271 265° West  Level FlightAware Approximate
Sun 08:11:00 PM 44.9821 -140.3084 265° West  Level FlightAware Approximate
Sun 08:12:00 PM 44.9184 -141.3385 265° West 490 564 36,000  Level FlightAware Transoceanic
Sun 08:13:00 PM 44.9055 -141.5294 264° West 490 564 36,000  Level FlightAware Transoceanic
Sun 08:14:00 PM 44.8922 -141.7202 264° West 490 564 36,000  Level FlightAware Transoceanic
Sun 08:15:00 PM 44.8786 -141.9109 264° West 490 564 36,000  Level FlightAware Transoceanic
Sun 08:16:00 PM 44.8647 -142.1015 264° West 490 564 36,000  Level FlightAware Transoceanic
Sun 08:17:00 PM 44.8506 -142.2920 264° West 490 564 36,000  Level FlightAware Transoceanic
Sun 08:18:00 PM 44.8360 -142.4825 264° West 490 564 36,000  Level FlightAware Transoceanic
Sun 08:19:00 PM 44.8212 -142.6728 264° West 490 564 36,000  Level FlightAware Transoceanic
Sun 08:20:00 PM 44.8060 -142.8630 264° West 490 564 36,000  Level FlightAware Transoceanic
Sun 08:21:00 PM 44.7906 -143.0531 263° West 490 564 36,000  Level FlightAware Transoceanic
Sun 08:22:00 PM 44.7748 -143.2432 263° West 490 564 36,000  Level FlightAware Transoceanic
Sun 08:23:00 PM 44.7587 -143.4331 263° West 490 564 36,000  Level FlightAware Transoceanic
Sun 08:24:00 PM 44.7423 -143.6229 263° West 490 564 36,000  Level FlightAware Transoceanic
Sun 08:25:00 PM 44.7256 -143.8127 263° West 490 564 36,000  Level FlightAware Transoceanic
Sun 08:26:00 PM 44.7085 -144.0022 263° West 490 564 36,000  Level FlightAware Transoceanic
Sun 08:27:00 PM 44.6912 -144.1917 263° West 490 564 36,000  Level FlightAware Transoceanic
Sun 08:28:00 PM 44.6735 -144.3811 262° West 490 564 36,000  Level FlightAware Transoceanic
Sun 08:29:00 PM 44.6555 -144.5704 262° West 490 564 36,000  Level FlightAware Transoceanic
Sun 08:30:00 PM 44.6372 -144.7595 262° West 490 564 36,000  Level FlightAware Transoceanic
Sun 08:31:00 PM 44.6186 -144.9485 262° West 490 564 36,000  Level FlightAware Transoceanic
Sun 08:32:00 PM 44.5997 -145.1374 262° West 490 564 36,000  Level FlightAware Transoceanic
Sun 08:33:00 PM 44.5805 -145.3262 262° West 490 564 36,000  Level FlightAware Transoceanic
Sun 08:34:00 PM 44.5609 -145.5148 262° West 490 564 36,000  Level FlightAware Transoceanic
Sun 08:35:00 PM 44.5411 -145.7034 262° West 490 564 36,000  Level FlightAware Transoceanic
Sun 08:36:00 PM 44.5209 -145.8918 261° West 490 564 36,000  Level FlightAware Transoceanic
Sun 08:37:00 PM 44.5005 -146.0800 261° West 490 564 36,000  Level FlightAware Transoceanic
Sun 08:38:00 PM 44.4797 -146.2681 261° West 490 564 36,000  Level FlightAware Transoceanic
Sun 08:39:00 PM 44.4586 -146.4561 261° West 490 564 36,000  Level FlightAware Transoceanic
Sun 08:40:00 PM 44.4372 -146.6440 261° West 490 564 36,000  Level FlightAware Transoceanic
Sun 08:41:00 PM 44.4155 -146.8317 261° West 490 564 36,000  Level FlightAware Transoceanic
Sun 08:42:00 PM 44.3935 -147.0193 261° West 490 564 36,000  Level FlightAware Transoceanic
Sun 08:43:00 PM 44.3712 -147.2067 260° West 490 564 36,000  Level FlightAware Transoceanic
Sun 08:44:00 PM 44.3486 -147.3940 260° West 490 564 36,000  Level FlightAware Transoceanic
Sun 08:45:00 PM 44.3256 -147.5811 260° West 490 564 36,000  Level FlightAware Transoceanic
Sun 08:46:00 PM 44.3024 -147.7681 260° West 490 564 36,000  Level FlightAware Transoceanic
Sun 08:47:00 PM 44.2789 -147.9550 260° West 490 564 36,000  Level FlightAware Transoceanic
Sun 08:48:00 PM 44.2550 -148.1417 260° West 490 564 36,000  Level FlightAware Transoceanic
Sun 08:49:00 PM 44.2309 -148.3282 260° West 490 564 36,000  Level FlightAware Transoceanic
Sun 08:50:00 PM 44.2064 -148.5146 260° West 490 564 36,000  Level FlightAware Transoceanic
Sun 08:51:00 PM 44.1817 -148.7009 259° West 490 564 36,000  Level FlightAware Transoceanic
Sun 08:52:00 PM 44.1566 -148.8869 259° West 490 564 36,000  Level FlightAware Transoceanic
Sun 08:53:00 PM 44.1313 -149.0728 259° West 490 564 36,000  Level FlightAware Transoceanic
Sun 08:54:00 PM 44.1056 -149.2586 259° West 490 564 36,000  Level FlightAware Transoceanic
Sun 08:55:00 PM 44.0797 -149.4442 259° West 490 564 36,000  Level FlightAware Transoceanic
Sun 08:56:00 PM 44.0534 -149.6296 259° West 490 564 36,000  Level FlightAware Transoceanic
Sun 08:57:00 PM 44.0269 -149.8149 259° West 490 564 36,000  Level FlightAware Transoceanic
Sun 08:58:00 PM 44.0000 -150.0000 266° West 490 564 36,000  Level FlightAware Transoceanic
Sun 08:59:00 PM 43.9901 -150.1779 265° West 490 564 36,000  Level FlightAware Transoceanic
Sun 09:00:00 PM 43.9798 -150.3558 265° West 490 564 36,000  Level FlightAware Transoceanic
Sun 09:01:00 PM 43.9693 -150.5336 265° West 490 564 36,000  Level FlightAware Transoceanic
Sun 09:02:00 PM 43.9585 -150.7113 265° West 490 564 36,000 1,622 Level FlightAware Transoceanic
Sun 09:02:14 PM 44.0000 -150.0000 266° West 463 533 38,000  Climbing Oakland Oceanic (ODAPS)
Sun 09:03:00 PM 43.9475 -150.8890 265° West 490 564 36,000 -1,132 Descending FlightAware Transoceanic
Sun 09:04:00 PM 43.9362 -151.0666 265° West 490 564 36,000  Level FlightAware Transoceanic
Sun 09:05:00 PM 43.9246 -151.2441 265° West 490 564 36,000  Level FlightAware Transoceanic
Sun 09:06:00 PM 43.9127 -151.4216 265° West 490 564 36,000  Level FlightAware Transoceanic
Sun 09:07:00 PM 43.9005 -151.5990 265° West 490 564 36,000 1,000 Level FlightAware Transoceanic
Sun 09:08:00 PM 43.9127 -151.4216 265° West 463 533 38,000 1,000 Climbing FlightAware Transoceanic
Sun 09:09:00 PM 43.9005 -151.5990 265° West 463 533 38,000  Level FlightAware Transoceanic
Sun 09:10:00 PM 43.8881 -151.7763 264° West 463 533 38,000  Level FlightAware Transoceanic
Sun 09:11:00 PM 43.8754 -151.9535 264° West 463 533 38,000  Level FlightAware Transoceanic
Sun 09:12:00 PM 43.8624 -152.1307 264° West 463 533 38,000  Level FlightAware Transoceanic
Sun 09:13:00 PM 43.8492 -152.3078 264° West 463 533 38,000  Level FlightAware Transoceanic
Sun 09:14:00 PM 43.8357 -152.4848 264° West 463 533 38,000  Level FlightAware Transoceanic
Sun 09:15:00 PM 43.8219 -152.6617 264° West 463 533 38,000  Level FlightAware Transoceanic
Sun 09:16:00 PM 43.8078 -152.8385 264° West 463 533 38,000  Level FlightAware Transoceanic
Sun 09:17:00 PM 43.7935 -153.0153 264° West 463 533 38,000  Level FlightAware Transoceanic
Sun 09:18:00 PM 43.7789 -153.1920 263° West 463 533 38,000  Level FlightAware Transoceanic
Sun 09:19:00 PM 43.7640 -153.3686 263° West 463 533 38,000  Level FlightAware Transoceanic
Sun 09:20:00 PM 43.7488 -153.5451 263° West 463 533 38,000  Level FlightAware Transoceanic
Sun 09:21:00 PM 43.7334 -153.7215 263° West 463 533 38,000  Level FlightAware Transoceanic
Sun 09:22:00 PM 43.7177 -153.8978 263° West 463 533 38,000  Level FlightAware Transoceanic
Sun 09:23:00 PM 43.7017 -154.0740 263° West 463 533 38,000  Level FlightAware Transoceanic
Sun 09:24:00 PM 43.6855 -154.2501 263° West 463 533 38,000  Level FlightAware Transoceanic
Sun 09:25:00 PM 43.6690 -154.4262 263° West 463 533 38,000  Level FlightAware Transoceanic
Sun 09:26:00 PM 43.6522 -154.6021 262° West 463 533 38,000  Level FlightAware Transoceanic
Sun 09:27:00 PM 43.6352 -154.7780 262° West 463 533 38,000  Level FlightAware Transoceanic
Sun 09:28:00 PM 43.6178 -154.9537 262° West 463 533 38,000  Level FlightAware Transoceanic
Sun 09:29:00 PM 43.6003 -155.1293 262° West 463 533 38,000  Level FlightAware Transoceanic
Sun 09:30:00 PM 43.5824 -155.3049 262° West 463 533 38,000  Level FlightAware Transoceanic
Sun 09:31:00 PM 43.5643 -155.4803 262° West 463 533 38,000  Level FlightAware Transoceanic
Sun 09:32:00 PM 43.5459 -155.6556 262° West 463 533 38,000  Level FlightAware Transoceanic
Sun 09:33:00 PM 43.5272 -155.8308 262° West 463 533 38,000  Level FlightAware Transoceanic
Sun 09:34:00 PM 43.5083 -156.0059 261° West 463 533 38,000  Level FlightAware Transoceanic
Sun 09:35:00 PM 43.4891 -156.1809 261° West 463 533 38,000  Level FlightAware Transoceanic
Sun 09:36:00 PM 43.4696 -156.3558 261° West 463 533 38,000  Level FlightAware Transoceanic
Sun 09:37:00 PM 43.4499 -156.5305 261° West 463 533 38,000  Level FlightAware Transoceanic
Sun 09:38:00 PM 43.4299 -156.7052 261° West 463 533 38,000  Level FlightAware Transoceanic
Sun 09:39:00 PM 43.4096 -156.8797 261° West 463 533 38,000  Level FlightAware Transoceanic
Sun 09:40:00 PM 43.3891 -157.0542 261° West 463 533 38,000  Level FlightAware Transoceanic
Sun 09:41:00 PM 43.3683 -157.2285 261° West 463 533 38,000  Level FlightAware Transoceanic
Sun 09:42:00 PM 43.3473 -157.4026 261° West 463 533 38,000  Level FlightAware Transoceanic
Sun 09:43:00 PM 43.3260 -157.5767 260° West 463 533 38,000  Level FlightAware Transoceanic
Sun 09:44:00 PM 43.3044 -157.7506 260° West 463 533 38,000  Level FlightAware Transoceanic
Sun 09:45:00 PM 43.2825 -157.9244 260° West 463 533 38,000  Level FlightAware Transoceanic
Sun 09:46:00 PM 43.2604 -158.0981 260° West 463 533 38,000  Level FlightAware Transoceanic
Sun 09:47:00 PM 43.2381 -158.2717 260° West 463 533 38,000  Level FlightAware Transoceanic
Sun 09:48:00 PM 43.2154 -158.4451 260° West 463 533 38,000  Level FlightAware Transoceanic
Sun 09:49:00 PM 43.1925 -158.6184 260° West 463 533 38,000  Level FlightAware Transoceanic
Sun 09:50:00 PM 43.1694 -158.7916 260° West 463 533 38,000  Level FlightAware Transoceanic
Sun 09:51:00 PM 43.1460 -158.9646 259° West 463 533 38,000  Level FlightAware Transoceanic
Sun 09:52:00 PM 43.1223 -159.1375 259° West 463 533 38,000  Level FlightAware Transoceanic
Sun 09:53:00 PM 43.0983 -159.3103 259° West 463 533 38,000  Level FlightAware Transoceanic
Sun 09:54:00 PM 43.0742 -159.4829 259° West 463 533 38,000  Level FlightAware Transoceanic
Sun 09:55:00 PM 43.0497 -159.6554 259° West 463 533 38,000  Level FlightAware Transoceanic
Sun 09:56:00 PM 43.0250 -159.8278 259° West 463 533 38,000  Level FlightAware Transoceanic
Sun 09:57:00 PM 43.0000 -160.0000 273° West 463 533 38,000  Level FlightAware Transoceanic
Sun 09:58:00 PM 43.0075 -160.1750 273° West 463 533 38,000  Level FlightAware Transoceanic
Sun 09:58:38 PM 43.0000 -160.0000 273° West 463 533 38,000  Level Oakland Oceanic (ODAPS)
Sun 09:59:00 PM 43.0147 -160.3501 273° West 463 533 38,000  Level FlightAware Transoceanic
Sun 10:00:00 PM 43.0217 -160.5253 273° West 463 533 38,000  Level FlightAware Transoceanic
Sun 10:01:00 PM 43.0284 -160.7004 273° West 463 533 38,000  Level FlightAware Transoceanic
Sun 10:02:00 PM 43.0349 -160.8756 273° West 463 533 38,000  Level FlightAware Transoceanic
Sun 10:03:00 PM 43.0410 -161.0509 273° West 463 533 38,000  Level FlightAware Transoceanic
Sun 10:04:00 PM 43.0469 -161.2262 273° West 463 533 38,000  Level FlightAware Transoceanic
Sun 10:05:00 PM 43.0526 -161.4014 272° West 463 533 38,000  Level FlightAware Transoceanic
Sun 10:06:00 PM 43.0579 -161.5768 272° West 463 533 38,000  Level FlightAware Transoceanic
Sun 10:07:00 PM 43.0630 -161.7522 272° West 463 533 38,000  Level FlightAware Transoceanic
Sun 10:08:00 PM 43.0678 -161.9276 272° West 463 533 38,000  Level FlightAware Transoceanic
Sun 10:09:00 PM 43.0724 -162.1030 272° West 463 533 38,000  Level FlightAware Transoceanic
Sun 10:10:00 PM 43.0767 -162.2784 272° West 463 533 38,000  Level FlightAware Transoceanic
Sun 10:11:00 PM 43.0807 -162.4539 272° West 463 533 38,000  Level FlightAware Transoceanic
Sun 10:12:00 PM 43.0845 -162.6294 272° West 463 533 38,000  Level FlightAware Transoceanic
Sun 10:13:00 PM 43.0880 -162.8049 271° West 463 533 38,000  Level FlightAware Transoceanic
Sun 10:14:00 PM 43.0912 -162.9805 271° West 463 533 38,000  Level FlightAware Transoceanic
Sun 10:15:00 PM 43.0942 -163.1560 271° West 463 533 38,000  Level FlightAware Transoceanic
Sun 10:16:00 PM 43.0969 -163.3316 271° West 463 533 38,000  Level FlightAware Transoceanic
Sun 10:17:00 PM 43.0993 -163.5072 271° West 463 533 38,000  Level FlightAware Transoceanic
Sun 10:18:00 PM 43.1014 -163.6828 271° West 463 533 38,000  Level FlightAware Transoceanic
Sun 10:19:00 PM 43.1033 -163.8584 271° West 463 533 38,000  Level FlightAware Transoceanic
Sun 10:20:00 PM 43.1049 -164.0340 271° West 463 533 38,000  Level FlightAware Transoceanic
Sun 10:21:00 PM 43.1063 -164.2096 271° West 463 533 38,000  Level FlightAware Transoceanic
Sun 10:22:00 PM 43.1073 -164.3853 270° West 463 533 38,000  Level FlightAware Transoceanic
Sun 10:23:00 PM 43.1081 -164.5609 270° West 463 533 38,000  Level FlightAware Transoceanic
Sun 10:24:00 PM 43.1087 -164.7365 270° West 463 533 38,000  Level FlightAware Transoceanic
Sun 10:25:00 PM 43.1089 -164.9122 270° West 463 533 38,000  Level FlightAware Transoceanic
Sun 10:26:00 PM 43.1089 -165.0878 270° West 463 533 38,000  Level FlightAware Transoceanic
Sun 10:27:00 PM 43.1087 -165.2635 270° West 463 533 38,000  Level FlightAware Transoceanic
Sun 10:28:00 PM 43.1081 -165.4391 270° West 463 533 38,000  Level FlightAware Transoceanic
Sun 10:29:00 PM 43.1073 -165.6147 270° West 463 533 38,000  Level FlightAware Transoceanic
Sun 10:30:00 PM 43.1063 -165.7904 269° West 463 533 38,000  Level FlightAware Transoceanic
Sun 10:31:00 PM 43.1049 -165.9660 269° West 463 533 38,000  Level FlightAware Transoceanic
Sun 10:32:00 PM 43.1033 -166.1416 269° West 463 533 38,000  Level FlightAware Transoceanic
Sun 10:33:00 PM 43.1014 -166.3172 269° West 463 533 38,000  Level FlightAware Transoceanic
Sun 10:34:00 PM 43.0993 -166.4928 269° West 463 533 38,000  Level FlightAware Transoceanic
Sun 10:35:00 PM 43.0969 -166.6684 269° West 463 533 38,000  Level FlightAware Transoceanic
Sun 10:36:00 PM 43.0942 -166.8440 269° West 463 533 38,000  Level FlightAware Transoceanic
Sun 10:37:00 PM 43.0912 -167.0195 269° West 463 533 38,000  Level FlightAware Transoceanic
Sun 10:38:00 PM 43.0880 -167.1951 269° West 463 533 38,000  Level FlightAware Transoceanic
Sun 10:39:00 PM 43.0845 -167.3706 268° West 463 533 38,000  Level FlightAware Transoceanic
Sun 10:40:00 PM 43.0807 -167.5461 268° West 463 533 38,000  Level FlightAware Transoceanic
Sun 10:41:00 PM 43.0767 -167.7216 268° West 463 533 38,000  Level FlightAware Transoceanic
Sun 10:42:00 PM 43.0724 -167.8970 268° West 463 533 38,000  Level FlightAware Transoceanic
Sun 10:43:00 PM 43.0678 -168.0724 268° West 463 533 38,000  Level FlightAware Transoceanic
Sun 10:44:00 PM 43.0630 -168.2478 268° West 463 533 38,000  Level FlightAware Transoceanic
Sun 10:45:00 PM 43.0579 -168.4232 268° West 463 533 38,000  Level FlightAware Transoceanic
Sun 10:46:00 PM 43.0526 -168.5986 268° West 463 533 38,000  Level FlightAware Transoceanic
Sun 10:47:00 PM 43.0469 -168.7738 267° West 463 533 38,000  Level FlightAware Transoceanic
Sun 10:48:00 PM 43.0410 -168.9491 267° West 463 533 38,000  Level FlightAware Transoceanic
Sun 10:49:00 PM 43.0349 -169.1244 267° West 463 533 38,000  Level FlightAware Transoceanic
Sun 10:50:00 PM 43.0284 -169.2996 267° West 463 533 38,000  Level FlightAware Transoceanic
Sun 10:51:00 PM 43.0217 -169.4747 267° West 463 533 38,000  Level FlightAware Transoceanic
Sun 10:52:00 PM 43.0147 -169.6499 267° West 463 533 38,000  Level FlightAware Transoceanic
Sun 10:53:00 PM 43.0075 -169.8250 267° West 463 533 38,000  Level FlightAware Transoceanic
Sun 10:54:00 PM 43.0000 -170.0000 281° West 463 533 38,000  Level FlightAware Transoceanic
Sun 10:55:00 PM 43.0233 -170.1609 281° West 463 533 38,000  Level FlightAware Transoceanic
Sun 10:56:00 PM 43.0465 -170.3220 281° West 463 533 38,000  Level FlightAware Transoceanic
Sun 10:57:00 PM 43.0694 -170.4831 281° West 463 533 38,000  Level FlightAware Transoceanic
Sun 10:58:00 PM 43.0920 -170.6444 281° West 463 533 38,000  Level FlightAware Transoceanic
Sun 10:59:00 PM 43.1145 -170.8058 281° West 463 533 38,000  Level FlightAware Transoceanic
Sun 11:00:00 PM 43.1367 -170.9673 281° West 463 533 38,000  Level FlightAware Transoceanic
Sun 11:01:00 PM 43.1587 -171.1290 281° West 463 533 38,000  Level FlightAware Transoceanic
Sun 11:02:00 PM 43.1804 -171.2907 280° West 463 533 38,000  Level FlightAware Transoceanic
Sun 11:03:00 PM 43.2020 -171.4526 280° West 463 533 38,000  Level FlightAware Transoceanic
Sun 11:04:00 PM 43.2233 -171.6146 280° West 463 533 38,000  Level FlightAware Transoceanic
Sun 11:05:00 PM 43.2443 -171.7767 280° West 463 533 38,000  Level FlightAware Transoceanic
Sun 11:06:00 PM 43.2652 -171.9389 280° West 463 533 38,000  Level FlightAware Transoceanic
Sun 11:07:00 PM 43.2858 -172.1012 280° West 463 533 38,000  Level FlightAware Transoceanic
Sun 11:08:00 PM 43.3062 -172.2636 280° West 463 533 38,000  Level FlightAware Transoceanic
Sun 11:09:00 PM 43.3263 -172.4262 280° West 463 533 38,000  Level FlightAware Transoceanic
Sun 11:10:00 PM 43.3462 -172.5888 280° West 463 533 38,000  Level FlightAware Transoceanic
Sun 11:11:00 PM 43.3659 -172.7516 279° West 463 533 38,000  Level FlightAware Transoceanic
Sun 11:12:00 PM 43.3854 -172.9144 279° West 463 533 38,000  Level FlightAware Transoceanic
Sun 11:13:00 PM 43.4046 -173.0774 279° West 463 533 38,000  Level FlightAware Transoceanic
Sun 11:14:00 PM 43.4236 -173.2404 279° West 463 533 38,000  Level FlightAware Transoceanic
Sun 11:15:00 PM 43.4424 -173.4036 279° West 463 533 38,000  Level FlightAware Transoceanic
Sun 11:16:00 PM 43.4609 -173.5668 279° West 463 533 38,000  Level FlightAware Transoceanic
Sun 11:17:00 PM 43.4792 -173.7302 279° West 463 533 38,000  Level FlightAware Transoceanic
Sun 11:18:00 PM 43.4973 -173.8937 279° West 463 533 38,000  Level FlightAware Transoceanic
Sun 11:19:00 PM 43.5151 -174.0572 278° West 463 533 38,000  Level FlightAware Transoceanic
Sun 11:20:00 PM 43.5327 -174.2209 278° West 463 533 38,000  Level FlightAware Transoceanic
Sun 11:21:00 PM 43.5501 -174.3846 278° West 463 533 38,000  Level FlightAware Transoceanic
Sun 11:22:00 PM 43.5673 -174.5485 278° West 463 533 38,000  Level FlightAware Transoceanic
Sun 11:23:00 PM 43.5842 -174.7124 278° West 463 533 38,000  Level FlightAware Transoceanic
Sun 11:24:00 PM 43.6008 -174.8764 278° West 463 533 38,000  Level FlightAware Transoceanic
Sun 11:25:00 PM 43.6173 -175.0406 278° West 463 533 38,000  Level FlightAware Transoceanic
Sun 11:26:00 PM 43.6335 -175.2048 278° West 463 533 38,000  Level FlightAware Transoceanic
Sun 11:27:00 PM 43.6494 -175.3691 278° West 463 533 38,000  Level FlightAware Transoceanic
Sun 11:28:00 PM 43.6651 -175.5334 277° West 463 533 38,000  Level FlightAware Transoceanic
Sun 11:29:00 PM 43.6806 -175.6979 277° West 463 533 38,000  Level FlightAware Transoceanic
Sun 11:30:00 PM 43.6959 -175.8625 277° West 463 533 38,000  Level FlightAware Transoceanic
Sun 11:31:00 PM 43.7109 -176.0271 277° West 463 533 38,000  Level FlightAware Transoceanic
Sun 11:32:00 PM 43.7257 -176.1918 277° West 463 533 38,000  Level FlightAware Transoceanic
Sun 11:33:00 PM 43.7403 -176.3566 277° West 463 533 38,000  Level FlightAware Transoceanic
Sun 11:34:00 PM 43.7546 -176.5215 277° West 463 533 38,000  Level FlightAware Transoceanic
Sun 11:35:00 PM 43.7686 -176.6864 277° West 463 533 38,000  Level FlightAware Transoceanic
Sun 11:36:00 PM 43.7825 -176.8515 277° West 463 533 38,000  Level FlightAware Transoceanic
Sun 11:37:00 PM 43.7961 -177.0166 276° West 463 533 38,000  Level FlightAware Transoceanic
Sun 11:38:00 PM 43.8094 -177.1817 276° West 463 533 38,000  Level FlightAware Transoceanic
Sun 11:39:00 PM 43.8226 -177.3470 276° West 463 533 38,000  Level FlightAware Transoceanic
Sun 11:40:00 PM 43.8354 -177.5123 276° West 463 533 38,000  Level FlightAware Transoceanic
Sun 11:41:00 PM 43.8481 -177.6777 276° West 463 533 38,000  Level FlightAware Transoceanic
Sun 11:42:00 PM 43.8605 -177.8432 276° West 463 533 38,000  Level FlightAware Transoceanic
Sun 11:43:00 PM 43.8727 -178.0087 276° West 463 533 38,000  Level FlightAware Transoceanic
Sun 11:44:00 PM 43.8846 -178.1743 276° West 463 533 38,000  Level FlightAware Transoceanic
Sun 11:45:00 PM 43.8963 -178.3400 276° West 463 533 38,000  Level FlightAware Transoceanic
Sun 11:46:00 PM 43.9077 -178.5057 275° West 463 533 38,000  Level FlightAware Transoceanic
Sun 11:47:00 PM 43.9189 -178.6715 275° West 463 533 38,000  Level FlightAware Transoceanic
Sun 11:48:00 PM 43.9299 -178.8374 275° West 463 533 38,000  Level FlightAware Transoceanic
Sun 11:49:00 PM 43.9407 -179.0033 275° West 463 533 38,000  Level FlightAware Transoceanic
Sun 11:50:00 PM 43.9511 -179.1693 275° West 463 533 38,000  Level FlightAware Transoceanic
Sun 11:51:00 PM 43.9614 -179.3353 275° West 463 533 38,000  Level FlightAware Transoceanic
Sun 11:52:00 PM 43.9714 -179.5014 275° West 463 533 38,000  Level FlightAware Transoceanic
Sun 11:53:00 PM 43.9812 -179.6676 275° West 463 533 38,000  Level FlightAware Transoceanic
Sun 11:54:00 PM 43.9907 -179.8338 274° West 463 533 38,000  Level FlightAware Transoceanic
Sun 11:55:00 PM 44.0007 179.9880 274° West  Level FlightAware Approximate
Sun 11:56:00 PM 44.0010 179.9759 273° West  Level FlightAware Approximate
Sun 11:57:00 PM 44.0083 179.7973 273° West  Level FlightAware Approximate
Sun 11:58:00 PM 44.0153 179.6187 273° West  Level FlightAware Approximate
Sun 11:59:00 PM 44.0221 179.4401 273° West  Level FlightAware Approximate
Sun 11:59:29 PM 44.0000 180.0000 273° West 393 452 38,000  Level Oakland Oceanic (ODAPS)
Mon 12:00:00 AM 44.0285 179.2614 273° West  Level FlightAware Approximate
Mon 12:01:00 AM 44.0347 179.0827 273° West  Level FlightAware Approximate
Mon 12:02:00 AM 44.0406 178.9039 273° West  Level FlightAware Approximate
Mon 12:03:00 AM 44.0463 178.7251 273° West  Level FlightAware Approximate
Mon 12:04:00 AM 44.0516 178.5463 272° West  Level FlightAware Approximate
Mon 12:05:00 AM 44.0514 178.6385 273° West 393 452 38,000  Level FlightAware Transoceanic
Mon 12:06:00 AM 44.0561 178.4870 272° West 393 452 38,000  Level FlightAware Transoceanic
Mon 12:07:00 AM 44.0606 178.3356 272° West 393 452 38,000  Level FlightAware Transoceanic
Mon 12:08:00 AM 44.0649 178.1841 272° West 393 452 38,000  Level FlightAware Transoceanic
Mon 12:09:00 AM 44.0690 178.0327 272° West 393 452 38,000  Level FlightAware Transoceanic
Mon 12:10:00 AM 44.0729 177.8811 272° West 393 452 38,000  Level FlightAware Transoceanic
Mon 12:11:00 AM 44.0767 177.7296 272° West 393 452 38,000  Level FlightAware Transoceanic
Mon 12:12:00 AM 44.0802 177.5781 272° West 393 452 38,000  Level FlightAware Transoceanic
Mon 12:13:00 AM 44.0835 177.4265 272° West 393 452 38,000  Level FlightAware Transoceanic
Mon 12:14:00 AM 44.0866 177.2749 272° West 393 452 38,000  Level FlightAware Transoceanic
Mon 12:15:00 AM 44.0895 177.1234 271° West 393 452 38,000  Level FlightAware Transoceanic
Mon 12:16:00 AM 44.0922 176.9717 271° West 393 452 38,000  Level FlightAware Transoceanic
Mon 12:17:00 AM 44.0947 176.8201 271° West 393 452 38,000  Level FlightAware Transoceanic
Mon 12:18:00 AM 44.0970 176.6685 271° West 393 452 38,000  Level FlightAware Transoceanic
Mon 12:19:00 AM 44.0991 176.5168 271° West 393 452 38,000  Level FlightAware Transoceanic
Mon 12:20:00 AM 44.1010 176.3652 271° West 393 452 38,000  Level FlightAware Transoceanic
Mon 12:21:00 AM 44.1027 176.2135 271° West 393 452 38,000  Level FlightAware Transoceanic
Mon 12:22:00 AM 44.1042 176.0618 271° West 393 452 38,000  Level FlightAware Transoceanic
Mon 12:23:00 AM 44.1055 175.9102 271° West 393 452 38,000  Level FlightAware Transoceanic
Mon 12:24:00 AM 44.1067 175.7585 271° West 393 452 38,000  Level FlightAware Transoceanic
Mon 12:25:00 AM 44.1076 175.6068 270° West 393 452 38,000  Level FlightAware Transoceanic
Mon 12:26:00 AM 44.1083 175.4551 270° West 393 452 38,000  Level FlightAware Transoceanic
Mon 12:27:00 AM 44.1088 175.3034 270° West 393 452 38,000  Level FlightAware Transoceanic
Mon 12:28:00 AM 44.1091 175.1517 270° West 393 452 38,000  Level FlightAware Transoceanic
Mon 12:29:00 AM 44.1092 175.0000 270° West 393 452 38,000  Level FlightAware Transoceanic
Mon 12:30:00 AM 44.1091 174.8483 270° West 393 452 38,000  Level FlightAware Transoceanic
Mon 12:31:00 AM 44.1088 174.6966 270° West 393 452 38,000  Level FlightAware Transoceanic
Mon 12:32:00 AM 44.1083 174.5449 270° West 393 452 38,000  Level FlightAware Transoceanic
Mon 12:33:00 AM 44.1076 174.3932 270° West 393 452 38,000  Level FlightAware Transoceanic
Mon 12:34:00 AM 44.1067 174.2415 269° West 393 452 38,000  Level FlightAware Transoceanic
Mon 12:35:00 AM 44.1055 174.0898 269° West 393 452 38,000  Level FlightAware Transoceanic
Mon 12:36:00 AM 44.1042 173.9382 269° West 393 452 38,000  Level FlightAware Transoceanic
Mon 12:37:00 AM 44.1027 173.7865 269° West 393 452 38,000  Level FlightAware Transoceanic
Mon 12:38:00 AM 44.1010 173.6348 269° West 393 452 38,000  Level FlightAware Transoceanic
Mon 12:39:00 AM 44.0991 173.4832 269° West 393 452 38,000  Level FlightAware Transoceanic
Mon 12:40:00 AM 44.0970 173.3315 269° West 393 452 38,000  Level FlightAware Transoceanic
Mon 12:41:00 AM 44.0947 173.1799 269° West 393 452 38,000  Level FlightAware Transoceanic
Mon 12:42:00 AM 44.0922 173.0283 269° West 393 452 38,000  Level FlightAware Transoceanic
Mon 12:43:00 AM 44.0895 172.8766 269° West 393 452 38,000  Level FlightAware Transoceanic
Mon 12:44:00 AM 44.0866 172.7251 268° West 393 452 38,000  Level FlightAware Transoceanic
Mon 12:45:00 AM 44.0835 172.5735 268° West 393 452 38,000  Level FlightAware Transoceanic
Mon 12:46:00 AM 44.0802 172.4219 268° West 393 452 38,000  Level FlightAware Transoceanic
Mon 12:47:00 AM 44.0767 172.2704 268° West 393 452 38,000  Level FlightAware Transoceanic
Mon 12:48:00 AM 44.0729 172.1189 268° West 393 452 38,000  Level FlightAware Transoceanic
Mon 12:49:00 AM 44.0690 171.9673 268° West 393 452 38,000  Level FlightAware Transoceanic
Mon 12:50:00 AM 44.0649 171.8159 268° West 393 452 38,000  Level FlightAware Transoceanic
Mon 12:51:00 AM 44.0606 171.6644 268° West 393 452 38,000  Level FlightAware Transoceanic
Mon 12:52:00 AM 44.0561 171.5130 268° West 393 452 38,000  Level FlightAware Transoceanic
Mon 12:53:00 AM 44.0514 171.3615 267° West 393 452 38,000  Level FlightAware Transoceanic
Mon 12:54:00 AM 44.0465 171.2101 267° West 393 452 38,000  Level FlightAware Transoceanic
Mon 12:55:00 AM 44.0414 171.0588 267° West 393 452 38,000  Level FlightAware Transoceanic
Mon 12:56:00 AM 44.0361 170.9074 267° West 393 452 38,000  Level FlightAware Transoceanic
Mon 12:57:00 AM 44.0305 170.7561 267° West 393 452 38,000  Level FlightAware Transoceanic
Mon 12:58:00 AM 44.0248 170.6048 267° West 393 452 38,000  Level FlightAware Transoceanic
Mon 12:59:00 AM 44.0189 170.4536 267° West 393 452 38,000  Level FlightAware Transoceanic
Mon 01:00:00 AM 44.0128 170.3024 267° West 393 452 38,000  Level FlightAware Transoceanic
Mon 01:01:00 AM 44.0065 170.1512 267° West 393 452 38,000  Level FlightAware Transoceanic
Mon 01:02:00 AM 44.0000 170.0000 258° West 393 452 38,000  Level FlightAware Transoceanic
Mon 01:03:00 AM 43.9744 169.8311 258° West 393 452 38,000  Level FlightAware Transoceanic
Mon 01:04:00 AM 43.9485 169.6623 258° West 393 452 38,000  Level FlightAware Transoceanic
Mon 01:05:00 AM 43.9224 169.4937 258° West 393 452 38,000  Level FlightAware Transoceanic
Mon 01:06:00 AM 43.8961 169.3252 258° West 393 452 38,000 1,364 Level FlightAware Transoceanic
Mon 01:06:28 AM 44.0000 170.0000 258° West 391 450 40,000  Climbing Oakland Oceanic (ODAPS)
Mon 01:07:00 AM 43.8695 169.1569 258° West 393 452 38,000 -1,304 Descending FlightAware Transoceanic
Mon 01:08:00 AM 43.8426 168.9887 257° West 393 452 38,000  Level FlightAware Transoceanic
Mon 01:09:00 AM 43.8155 168.8207 257° West 393 452 38,000  Level FlightAware Transoceanic
Mon 01:10:00 AM 43.7882 168.6528 257° West 393 452 38,000  Level FlightAware Transoceanic
Mon 01:11:00 AM 43.7606 168.4851 257° West 393 452 38,000 1,000 Level FlightAware Transoceanic
Mon 01:12:00 AM 43.7722 168.5558 257° West 391 450 40,000 1,000 Climbing FlightAware Transoceanic
Mon 01:13:00 AM 43.7458 168.3960 257° West 391 450 40,000  Level FlightAware Transoceanic
Mon 01:14:00 AM 43.7192 168.2364 257° West 391 450 40,000  Level FlightAware Transoceanic
Mon 01:15:00 AM 43.6923 168.0769 257° West 391 450 40,000  Level FlightAware Transoceanic
Mon 01:16:00 AM 43.6652 167.9176 257° West 391 450 40,000  Level FlightAware Transoceanic
Mon 01:17:00 AM 43.6379 167.7584 257° West 391 450 40,000  Level FlightAware Transoceanic
Mon 01:18:00 AM 43.6104 167.5993 256° West 391 450 40,000  Level FlightAware Transoceanic
Mon 01:19:00 AM 43.5826 167.4404 256° West 391 450 40,000  Level FlightAware Transoceanic
Mon 01:20:00 AM 43.5546 167.2816 256° West 391 450 40,000  Level FlightAware Transoceanic
Mon 01:21:00 AM 43.5265 167.1230 256° West 391 450 40,000  Level FlightAware Transoceanic
Mon 01:22:00 AM 43.4980 166.9646 256° West 391 450 40,000  Level FlightAware Transoceanic
Mon 01:23:00 AM 43.4694 166.8062 256° West 391 450 40,000  Level FlightAware Transoceanic
Mon 01:24:00 AM 43.4406 166.6481 256° West 391 450 40,000  Level FlightAware Transoceanic
Mon 01:25:00 AM 43.4115 166.4901 256° West 391 450 40,000  Level FlightAware Transoceanic
Mon 01:26:00 AM 43.3822 166.3322 256° West 391 450 40,000  Level FlightAware Transoceanic
Mon 01:27:00 AM 43.3527 166.1745 256° West 391 450 40,000  Level FlightAware Transoceanic
Mon 01:28:00 AM 43.3230 166.0169 255° West 391 450 40,000  Level FlightAware Transoceanic
Mon 01:29:00 AM 43.2930 165.8595 255° West 391 450 40,000  Level FlightAware Transoceanic
Mon 01:30:00 AM 43.2629 165.7023 255° West 391 450 40,000  Level FlightAware Transoceanic
Mon 01:31:00 AM 43.2325 165.5452 255° West 391 450 40,000  Level FlightAware Transoceanic
Mon 01:32:00 AM 43.2020 165.3883 255° West 391 450 40,000  Level FlightAware Transoceanic
Mon 01:33:00 AM 43.1712 165.2315 255° West 391 450 40,000  Level FlightAware Transoceanic
Mon 01:34:00 AM 43.1402 165.0749 255° West 391 450 40,000  Level FlightAware Transoceanic
Mon 01:35:00 AM 43.1089 164.9184 255° West 391 450 40,000  Level FlightAware Transoceanic
Mon 01:36:00 AM 43.0775 164.7621 255° West 391 450 40,000  Level FlightAware Transoceanic
Mon 01:37:00 AM 43.0459 164.6060 254° West 391 450 40,000  Level FlightAware Transoceanic
Mon 01:38:00 AM 43.0140 164.4500 254° West 391 450 40,000  Level FlightAware Transoceanic
Mon 01:39:00 AM 42.9819 164.2942 254° West 391 450 40,000  Level FlightAware Transoceanic
Mon 01:40:00 AM 42.9496 164.1385 254° West 391 450 40,000  Level FlightAware Transoceanic
Mon 01:41:00 AM 42.9172 163.9830 254° West 391 450 40,000  Level FlightAware Transoceanic
Mon 01:42:00 AM 42.8845 163.8277 254° West 391 450 40,000  Level FlightAware Transoceanic
Mon 01:43:00 AM 42.8516 163.6726 254° West 391 450 40,000  Level FlightAware Transoceanic
Mon 01:44:00 AM 42.8184 163.5176 254° West 391 450 40,000  Level FlightAware Transoceanic
Mon 01:45:00 AM 42.7851 163.3627 254° West 391 450 40,000  Level FlightAware Transoceanic
Mon 01:46:00 AM 42.7516 163.2081 253° West 391 450 40,000  Level FlightAware Transoceanic
Mon 01:47:00 AM 42.7178 163.0536 253° West 391 450 40,000  Level FlightAware Transoceanic
Mon 01:48:00 AM 42.6839 162.8993 253° West 391 450 40,000  Level FlightAware Transoceanic
Mon 01:49:00 AM 42.6497 162.7451 253° West 391 450 40,000  Level FlightAware Transoceanic
Mon 01:50:00 AM 42.6153 162.5912 253° West 391 450 40,000  Level FlightAware Transoceanic
Mon 01:51:00 AM 42.5808 162.4373 253° West 391 450 40,000  Level FlightAware Transoceanic
Mon 01:52:00 AM 42.5460 162.2837 253° West 391 450 40,000  Level FlightAware Transoceanic
Mon 01:53:00 AM 42.5110 162.1302 253° West 391 450 40,000  Level FlightAware Transoceanic
Mon 01:54:00 AM 42.4758 161.9769 253° West 391 450 40,000  Level FlightAware Transoceanic
Mon 01:55:00 AM 42.4404 161.8238 253° West 391 450 40,000  Level FlightAware Transoceanic
Mon 01:56:00 AM 42.4048 161.6709 252° West 391 450 40,000  Level FlightAware Transoceanic
Mon 01:57:00 AM 42.3690 161.5181 252° West 391 450 40,000  Level FlightAware Transoceanic
Mon 01:58:00 AM 42.3330 161.3655 252° West 391 450 40,000  Level FlightAware Transoceanic
Mon 01:59:00 AM 42.2968 161.2130 252° West 391 450 40,000  Level FlightAware Transoceanic
Mon 02:00:00 AM 42.2604 161.0608 252° West 391 450 40,000  Level FlightAware Transoceanic
Mon 02:01:00 AM 42.2238 160.9087 252° West 391 450 40,000  Level FlightAware Transoceanic
Mon 02:02:00 AM 42.1870 160.7568 252° West 391 450 40,000  Level FlightAware Transoceanic
Mon 02:03:00 AM 42.1500 160.6051 252° West 391 450 40,000  Level FlightAware Transoceanic
Mon 02:04:00 AM 42.1128 160.4536 252° West 391 450 40,000  Level FlightAware Transoceanic
Mon 02:05:00 AM 42.0754 160.3022 252° West 391 450 40,000  Level FlightAware Transoceanic
Mon 02:06:00 AM 42.0378 160.1510 251° West 391 450 40,000  Level FlightAware Transoceanic
Mon 02:07:00 AM 42.0000 160.0000 253° West 391 450 40,000  Level FlightAware Transoceanic
Mon 02:08:00 AM 41.9619 159.8320 253° West 391 450 40,000  Level FlightAware Transoceanic
Mon 02:09:00 AM 41.9236 159.6642 253° West 391 450 40,000  Level FlightAware Transoceanic
Mon 02:10:00 AM 41.8851 159.4966 253° West 391 450 40,000  Level FlightAware Transoceanic
Mon 02:11:00 AM 41.8463 159.3292 253° West 391 450 40,000  Level FlightAware Transoceanic
Mon 02:12:00 AM 41.8073 159.1620 253° West 391 450 40,000  Level FlightAware Transoceanic
Mon 02:13:00 AM 41.7680 158.9951 252° West 391 450 40,000  Level FlightAware Transoceanic
Mon 02:14:00 AM 41.7285 158.8283 252° West 391 450 40,000  Level FlightAware Transoceanic
Mon 02:15:00 AM 41.6887 158.6617 252° West 391 450 40,000  Level FlightAware Transoceanic
Mon 02:16:00 AM 41.6487 158.4953 252° West 391 450 40,000  Level FlightAware Transoceanic
Mon 02:17:00 AM 41.6085 158.3292 252° West 391 450 40,000  Level FlightAware Transoceanic
Mon 02:18:00 AM 41.5680 158.1633 252° West 391 450 40,000  Level FlightAware Transoceanic
Mon 02:19:00 AM 41.5272 157.9975 252° West 391 450 40,000  Level FlightAware Transoceanic
Mon 02:20:00 AM 41.4863 157.8320 252° West 391 450 40,000  Level FlightAware Transoceanic
Mon 02:21:00 AM 41.4451 157.6667 252° West 391 450 40,000  Level FlightAware Transoceanic
Mon 02:22:00 AM 41.4037 157.5015 251° West 391 450 40,000  Level FlightAware Transoceanic
Mon 02:23:00 AM 41.3620 157.3366 251° West 391 450 40,000  Level FlightAware Transoceanic
Mon 02:24:00 AM 41.3201 157.1720 251° West 391 450 40,000  Level FlightAware Transoceanic
Mon 02:25:00 AM 41.2780 157.0075 251° West 391 450 40,000  Level FlightAware Transoceanic
Mon 02:26:00 AM 41.2356 156.8432 251° West 391 450 40,000  Level FlightAware Transoceanic
Mon 02:27:00 AM 41.1930 156.6792 251° West 391 450 40,000  Level FlightAware Transoceanic
Mon 02:28:00 AM 41.1502 156.5153 251° West 391 450 40,000  Level FlightAware Transoceanic
Mon 02:29:00 AM 41.1071 156.3517 251° West 391 450 40,000  Level FlightAware Transoceanic
Mon 02:30:00 AM 41.0638 156.1883 251° West 391 450 40,000  Level FlightAware Transoceanic
Mon 02:31:00 AM 41.0203 156.0251 250° West 391 450 40,000  Level FlightAware Transoceanic
Mon 02:32:00 AM 40.9765 155.8621 250° West 391 450 40,000  Level FlightAware Transoceanic
Mon 02:33:00 AM 40.9325 155.6994 250° West 391 450 40,000  Level FlightAware Transoceanic
Mon 02:34:00 AM 40.8883 155.5368 250° West 391 450 40,000  Level FlightAware Transoceanic
Mon 02:35:00 AM 40.8439 155.3745 250° West 391 450 40,000  Level FlightAware Transoceanic
Mon 02:36:00 AM 40.7992 155.2124 250° West 391 450 40,000  Level FlightAware Transoceanic
Mon 02:37:00 AM 40.7543 155.0505 250° West 391 450 40,000  Level FlightAware Transoceanic
Mon 02:38:00 AM 40.7092 154.8889 250° West 391 450 40,000  Level FlightAware Transoceanic
Mon 02:39:00 AM 40.6638 154.7274 250° West 391 450 40,000  Level FlightAware Transoceanic
Mon 02:40:00 AM 40.6183 154.5662 250° West 391 450 40,000  Level FlightAware Transoceanic
Mon 02:41:00 AM 40.5725 154.4052 249° West 391 450 40,000  Level FlightAware Transoceanic
Mon 02:42:00 AM 40.5265 154.2444 249° West 391 450 40,000  Level FlightAware Transoceanic
Mon 02:43:00 AM 40.4802 154.0838 249° West 391 450 40,000  Level FlightAware Transoceanic
Mon 02:44:00 AM 40.4337 153.9235 249° West 391 450 40,000  Level FlightAware Transoceanic
Mon 02:45:00 AM 40.3871 153.7633 249° West 391 450 40,000  Level FlightAware Transoceanic
Mon 02:46:00 AM 40.3401 153.6034 249° West 391 450 40,000  Level FlightAware Transoceanic
Mon 02:47:00 AM 40.2930 153.4438 249° West 391 450 40,000  Level FlightAware Transoceanic
Mon 02:48:00 AM 40.2457 153.2843 249° West 391 450 40,000  Level FlightAware Transoceanic
Mon 02:49:00 AM 40.1981 153.1251 249° West 391 450 40,000  Level FlightAware Transoceanic
Mon 02:50:00 AM 40.1503 152.9661 248° West 391 450 40,000  Level FlightAware Transoceanic
Mon 02:51:00 AM 40.1023 152.8073 248° West 391 450 40,000  Level FlightAware Transoceanic
Mon 02:52:00 AM 40.0541 152.6487 248° West 391 450 40,000  Level FlightAware Transoceanic
Mon 02:53:00 AM 40.0057 152.4904 248° West 391 450 40,000  Level FlightAware Transoceanic
Mon 02:54:00 AM 39.9570 152.3323 248° West 391 450 40,000  Level FlightAware Transoceanic
Mon 02:55:00 AM 39.9082 152.1744 248° West 391 450 40,000  Level FlightAware Transoceanic
Mon 02:56:00 AM 39.8591 152.0167 248° West 391 450 40,000  Level FlightAware Transoceanic
Mon 02:57:00 AM 39.8098 151.8593 248° West 391 450 40,000  Level FlightAware Transoceanic
Mon 02:58:00 AM 39.7603 151.7021 248° West 391 450 40,000  Level FlightAware Transoceanic
Mon 02:59:00 AM 39.7106 151.5451 248° West 391 450 40,000  Level FlightAware Transoceanic
Mon 03:00:00 AM 39.6607 151.3884 247° West 391 450 40,000  Level FlightAware Transoceanic
Mon 03:01:00 AM 39.6105 151.2318 247° West 391 450 40,000  Level FlightAware Transoceanic
Mon 03:02:00 AM 39.5602 151.0755 247° West 391 450 40,000  Level FlightAware Transoceanic
Mon 03:03:00 AM 39.5097 150.9195 247° West 391 450 40,000  Level FlightAware Transoceanic
Mon 03:04:00 AM 39.4589 150.7636 247° West 391 450 40,000  Level FlightAware Transoceanic
Mon 03:05:00 AM 39.4079 150.6080 247° West 391 450 40,000  Level FlightAware Transoceanic
Mon 03:06:00 AM 39.3568 150.4526 247° West 391 450 40,000  Level FlightAware Transoceanic
Mon 03:07:00 AM 39.3054 150.2975 247° West 391 450 40,000  Level FlightAware Transoceanic
Mon 03:08:00 AM 39.2538 150.1425 247° West 391 450 40,000  Level FlightAware Transoceanic
Mon 03:09:00 AM 39.2020 149.9878 247° West 391 450 40,000  Level FlightAware Transoceanic
Mon 03:10:00 AM 39.1557 149.8352 249° West  Level FlightAware Approximate
Mon 03:11:00 AM 39.1091 149.6828 249° West  Level FlightAware Approximate
Mon 03:12:00 AM 39.0964 149.6956 240° Southwest  Level FlightAware Approximate
Mon 03:13:00 AM 39.0332 149.5536 240° Southwest  Level FlightAware Approximate
Mon 03:14:00 AM 38.9699 149.4118 240° Southwest  Level FlightAware Approximate
Mon 03:15:00 AM 38.9064 149.2704 240° Southwest  Level FlightAware Approximate
Mon 03:16:00 AM 38.8428 149.1291 240° Southwest  Level FlightAware Approximate
Mon 03:17:00 AM 38.7790 148.9881 240° Southwest  Level FlightAware Approximate
Mon 03:18:00 AM 38.7150 148.8474 240° Southwest  Level FlightAware Approximate
Mon 03:19:00 AM 38.6508 148.7070 240° Southwest  Level FlightAware Approximate
Mon 03:20:00 AM 38.5865 148.5667 240° Southwest  Level FlightAware Approximate
Mon 03:21:00 AM 38.5220 148.4268 240° Southwest  Level FlightAware Approximate
Mon 03:22:00 AM 38.4574 148.2870 239° Southwest  Level FlightAware Approximate
Mon 03:23:00 AM 38.3925 148.1476 239° Southwest  Level FlightAware Approximate
Mon 03:24:00 AM 38.3275 148.0084 239° Southwest  Level FlightAware Approximate
Mon 03:25:00 AM 38.2624 147.8694 239° Southwest  Level FlightAware Approximate
Mon 03:26:00 AM 38.1971 147.7307 239° Southwest  Level FlightAware Approximate
Mon 03:27:00 AM 38.1316 147.5922 239° Southwest  Level FlightAware Approximate
Mon 03:28:00 AM 38.0660 147.4540 239° Southwest  Level FlightAware Approximate
Mon 03:29:00 AM 38.0002 147.3160 239° Southwest  Level FlightAware Approximate
Mon 03:30:00 AM 37.9342 147.1783 239° Southwest  Level FlightAware Approximate
Mon 03:31:00 AM 37.8681 147.0408 239° Southwest  Level FlightAware Approximate
Mon 03:32:00 AM 37.8018 146.9036 239° Southwest  Level FlightAware Approximate
Mon 03:33:00 AM 37.7354 146.7666 239° Southwest  Level FlightAware Approximate
Mon 03:34:00 AM 37.6688 146.6299 238° Southwest  Level FlightAware Approximate
Mon 03:35:00 AM 37.6020 146.4934 238° Southwest  Level FlightAware Approximate
Mon 03:36:00 AM 37.5351 146.3571 238° Southwest  Level FlightAware Approximate
Mon 03:37:00 AM 37.4680 146.2211 238° Southwest  Level FlightAware Approximate
Mon 03:38:00 AM 37.4008 146.0853 238° Southwest  Level FlightAware Approximate
Mon 03:39:00 AM 37.3334 145.9498 238° Southwest  Level FlightAware Approximate
Mon 03:40:00 AM 37.2659 145.8146 238° Southwest  Level FlightAware Approximate
Mon 03:41:00 AM 37.1982 145.6795 238° Southwest  Level FlightAware Approximate
Mon 03:42:00 AM 37.1706 145.5265 263° West  Level FlightAware Approximate
Mon 03:43:00 AM 37.1541 145.3684 263° West  Level FlightAware Approximate
Mon 03:44:00 AM 37.1373 145.2104 262° West  Level FlightAware Approximate
Mon 03:45:00 AM 37.1204 145.0525 262° West  Level FlightAware Approximate
Mon 03:46:00 AM 37.1032 144.8946 262° West  Level FlightAware Approximate
Mon 03:46:55 AM 37.1660 145.1010 262° West 423 487 40,000  Level FlightAware ADS-B
Mon 03:47:00 AM 37.0859 144.7369 262° West  Level FlightAware Approximate
Mon 03:47:35 AM 37.1590 144.9990 265° West 421 484 40,000  Level FlightAware ADS-B
Mon 03:48:15 AM 37.1520 144.9030 265° West 420 483 40,000  Level FlightAware ADS-B
Mon 03:48:55 AM 37.1450 144.8090 265° West 420 483 40,000  Level FlightAware ADS-B
Mon 03:49:50 AM 37.1360 144.6770 265° West 420 483 40,000  Level FlightAware ADS-B
Mon 03:50:35 AM 37.1280 144.5640 265° West 422 486 40,000  Level FlightAware ADS-B
Mon 03:51:15 AM 37.1210 144.4670 265° West 423 487 40,000  Level FlightAware ADS-B
Mon 03:52:00 AM 37.1120 144.3580 264° West 424 488 40,000  Level FlightAware ADS-B
Mon 03:52:40 AM 37.1050 144.2590 265° West 426 490 40,000  Level FlightAware ADS-B
Mon 03:53:40 AM 37.0950 144.1240 265° West 427 491 40,000  Level FlightAware ADS-B
Mon 03:54:20 AM 37.0860 144.0150 264° West 428 493 40,000  Level FlightAware ADS-B
Mon 03:55:00 AM 37.0790 143.9160 265° West 428 493 40,000  Level FlightAware ADS-B
Mon 03:55:45 AM 37.0700 143.8060 264° West 429 494 40,000  Level FlightAware ADS-B
Mon 03:56:25 AM 37.0620 143.7070 264° West 428 493 40,000  Level FlightAware ADS-B
Mon 03:57:06 AM 37.0540 143.6050 264° West 428 493 40,000  Level FlightAware ADS-B
Mon 03:57:45 AM 37.0460 143.5070 264° West 428 493 40,000  Level FlightAware ADS-B
Mon 03:58:25 AM 37.0380 143.4080 264° West 428 493 40,000  Level FlightAware ADS-B
Mon 03:59:05 AM 37.0300 143.3100 264° West 427 491 40,000  Level FlightAware ADS-B
Mon 03:59:50 AM 37.0210 143.2010 264° West 427 491 40,000  Level FlightAware ADS-B
Mon 04:00:46 AM 37.0110 143.0930 263° West 427 491 40,000  Level FlightAware ADS-B
Mon 04:01:30 AM 36.9990 142.9530 264° West 426 490 40,000  Level FlightAware ADS-B
Mon 04:02:15 AM 36.9900 142.8430 264° West 425 489 40,000  Level FlightAware ADS-B
Mon 04:02:55 AM 36.9810 142.7460 263° West 426 490 40,000  Level FlightAware ADS-B
Mon 04:03:35 AM 36.9730 142.6480 264° West 425 489 40,000  Level FlightAware ADS-B
Mon 04:04:20 AM 36.9630 142.5380 264° West 425 489 40,000  Level FlightAware ADS-B
Mon 04:04:54 AM 36.9550 142.4530 263° West 425 489 40,000  Level FlightAware ADS-B
Mon 04:06:05 AM 36.9390 142.2830 263° West 425 489 40,000  Level FlightAware ADS-B
Mon 04:06:50 AM 36.9290 142.1730 264° West 426 490 40,000  Level FlightAware ADS-B
Mon 04:07:30 AM 36.9200 142.0760 263° West 426 490 40,000  Level FlightAware ADS-B
Mon 04:08:14 AM 36.9100 141.9650 264° West 428 493 40,000  Level FlightAware ADS-B
Mon 04:08:54 AM 36.9000 141.8670 263° West 429 494 40,000  Level FlightAware ADS-B
Mon 04:09:40 AM 36.8900 141.7560 264° West 431 496 40,000  Level FlightAware ADS-B
Mon 04:10:20 AM 36.8800 141.6580 263° West 433 498 40,000  Level FlightAware ADS-B
Mon 04:11:16 AM 36.8660 141.5160 263° West 435 501 40,000  Level FlightAware ADS-B
Mon 04:11:57 AM 36.8560 141.4170 263° West 437 503 40,000  Level FlightAware ADS-B
Mon 04:12:42 AM 36.8450 141.3030 263° West 437 503 40,000  Level FlightAware ADS-B
Mon 04:13:26 AM 36.8230 141.1970 255° West 436 502 40,000  Level FlightAware ADS-B
Mon 04:14:05 AM 36.7920 141.1040 247° West 438 504 40,000  Level FlightAware ADS-B
Mon 04:14:50 AM 36.7560 141.0000 247° West 440 506 40,000  Level FlightAware ADS-B
Mon 04:15:36 AM 36.7350 140.9390 247° West 437 503 40,000  Level FlightAware ADS-B
Mon 04:16:18 AM 36.6870 140.7990 247° West 443 510 40,000  Level FlightAware ADS-B
Mon 04:17:03 AM 36.6490 140.6890 247° West 444 511 40,000  Level FlightAware ADS-B
Mon 04:17:47 AM 36.6130 140.5860 246° West 446 513 40,000  Level FlightAware ADS-B
Mon 04:18:27 AM 36.5790 140.4900 246° West 447 514 40,000  Level FlightAware ADS-B
Mon 04:19:10 AM 36.5450 140.3910 247° West 450 518 40,000  Level FlightAware ADS-B
Mon 04:19:52 AM 36.5090 140.2890 246° West 454 522 40,000  Level FlightAware ADS-B
Mon 04:20:36 AM 36.4720 140.1840 246° West 458 527 40,000  Level FlightAware ADS-B
Mon 04:21:15 AM 36.4390 140.0910 246° West 460 529 40,000  Level FlightAware ADS-B
Mon 04:21:59 AM 36.4010 139.9860 246° West 460 529 40,000  Level FlightAware ADS-B
Mon 04:22:39 AM 36.3660 139.8870 246° West 460 529 40,000  Level FlightAware ADS-B
Mon 04:23:25 AM 36.3270 139.7780 246° West 461 531 40,000  Level FlightAware ADS-B
Mon 04:24:05 AM 36.2920 139.6800 246° West 460 529 40,000  Level FlightAware ADS-B
Mon 04:24:47 AM 36.2560 139.5800 246° West 459 528 40,000  Level FlightAware ADS-B
Mon 04:25:30 AM 36.2190 139.4770 246° West 460 529 40,000  Level FlightAware ADS-B
Mon 04:26:10 AM 36.1840 139.3810 246° West 460 529 40,000  Level FlightAware ADS-B
Mon 04:26:55 AM 36.1460 139.2750 246° West 459 528 40,000  Level FlightAware ADS-B
Mon 04:27:34 AM 36.1110 139.1800 246° West 459 528 40,000  Level FlightAware ADS-B
Mon 04:28:16 AM 36.0750 139.0820 246° West 458 527 40,000  Level FlightAware ADS-B
Mon 04:28:58 AM 36.0380 138.9800 246° West 459 528 40,000  Level FlightAware ADS-B
Mon 04:29:43 AM 35.9980 138.8710 246° West 458 527 40,000  Level FlightAware ADS-B
Mon 04:30:26 AM 35.9770 138.8140 246° West 458 527 40,000  Level FlightAware ADS-B
Mon 04:31:13 AM 35.9190 138.6580 245° Southwest 457 526 40,000  Level FlightAware ADS-B
Mon 04:31:55 AM 35.8820 138.5600 245° Southwest 457 526 40,000  Level FlightAware ADS-B
Mon 04:32:40 AM 35.8420 138.4540 245° Southwest 455 524 40,000  Level FlightAware ADS-B
Mon 04:33:17 AM 35.8080 138.3660 245° Southwest 453 521 40,000  Level FlightAware ADS-B
Mon 04:34:05 AM 35.7650 138.2540 245° Southwest 454 522 40,000  Level FlightAware ADS-B
Mon 04:34:45 AM 35.7300 138.1630 245° Southwest 454 522 40,000  Level FlightAware ADS-B
Mon 04:35:23 AM 35.6970 138.0770 245° Southwest 454 522 40,000  Level FlightAware ADS-B
Mon 04:36:23 AM 35.6460 137.9420 245° Southwest 452 520 40,000  Level FlightAware ADS-B
Mon 04:37:06 AM 35.6180 137.8310 253° West 446 513 40,000  Level FlightAware ADS-B
Mon 04:37:46 AM 35.5990 137.7310 257° West 445 512 40,000  Level FlightAware ADS-B
Mon 04:38:31 AM 35.5790 137.6180 258° West 450 518 40,000  Level FlightAware ADS-B
Mon 04:39:11 AM 35.5600 137.5180 257° West 448 516 40,000  Level FlightAware ADS-B
Mon 04:39:52 AM 35.5420 137.4230 257° West 447 514 40,000  Level FlightAware ADS-B
Mon 04:40:31 AM 35.5220 137.3190 257° West 449 517 40,000  Level FlightAware ADS-B
Mon 04:41:16 AM 35.5010 137.2110 257° West 451 519 40,000  Level FlightAware ADS-B
Mon 04:41:56 AM 35.4820 137.1120 257° West 451 519 40,000  Level FlightAware ADS-B
Mon 04:42:41 AM 35.4600 136.9990 257° West 450 518 40,000  Level FlightAware ADS-B
Mon 04:43:21 AM 35.4410 136.9000 257° West 449 517 40,000  Level FlightAware ADS-B
Mon 04:44:01 AM 35.4220 136.8010 257° West 448 516 40,000  Level FlightAware ADS-B
Mon 04:44:46 AM 35.4010 136.6930 257° West 446 513 40,000  Level FlightAware ADS-B
Mon 04:45:26 AM 35.3820 136.5940 257° West 444 511 40,000  Level FlightAware ADS-B
Mon 04:46:11 AM 35.3600 136.4830 256° West 441 507 40,000  Level FlightAware ADS-B
Mon 04:46:46 AM 35.3440 136.4020 256° West 440 506 40,000  Level FlightAware ADS-B
Mon 04:47:31 AM 35.3210 136.2850 256° West 436 502 40,000  Level FlightAware ADS-B
Mon 04:48:16 AM 35.3000 136.1830 256° West 431 496 40,000  Level FlightAware ADS-B
Mon 04:48:56 AM 35.2810 136.0850 257° West 428 493 40,000  Level FlightAware ADS-B
Mon 04:49:41 AM 35.2590 135.9770 256° West 430 495 40,000  Level FlightAware ADS-B
Mon 04:50:16 AM 35.2440 135.9040 256° West 429 494 40,000  Level FlightAware ADS-B
Mon 04:51:16 AM 35.2140 135.7530 256° West 429 494 40,000  Level FlightAware ADS-B
Mon 04:52:01 AM 35.1920 135.6490 256° West 429 494 40,000  Level FlightAware ADS-B
Mon 04:52:43 AM 35.1730 135.5560 256° West 431 496 40,000  Level FlightAware ADS-B
Mon 04:53:17 AM 35.1550 135.4690 256° West 430 495 40,000  Level FlightAware ADS-B
Mon 04:54:09 AM 35.1300 135.3490 256° West 430 495 40,000  Level FlightAware ADS-B
Mon 04:54:49 AM 35.1110 135.2540 256° West 429 494 40,000  Level FlightAware ADS-B
Mon 04:55:29 AM 35.0910 135.1590 256° West 430 495 40,000  Level FlightAware ADS-B
Mon 04:56:14 AM 35.0690 135.0560 255° West 430 495 40,000  Level FlightAware ADS-B
Mon 04:56:54 AM 35.0490 134.9610 256° West 430 495 40,000  Level FlightAware ADS-B
Mon 04:57:34 AM 35.0300 134.8710 256° West 431 496 40,000  Level FlightAware ADS-B
Mon 04:58:19 AM 35.0060 134.7610 255° West 433 498 40,000  Level FlightAware ADS-B
Mon 04:58:59 AM 34.9870 134.6680 256° West 437 503 40,000  Level FlightAware ADS-B
Mon 04:59:44 AM 34.9650 134.5580 256° West 437 503 40,000  Level FlightAware ADS-B
Mon 05:00:44 AM 34.9380 134.4210 257° West 438 504 40,000  Level FlightAware ADS-B
Mon 05:01:24 AM 34.9180 134.3180 257° West 438 504 40,000  Level FlightAware ADS-B
Mon 05:02:09 AM 34.8970 134.2120 256° West 438 504 40,000  Level FlightAware ADS-B
Mon 05:02:49 AM 34.8770 134.1150 256° West 438 504 40,000  Level FlightAware ADS-B
Mon 05:03:30 AM 34.8590 134.0260 256° West 438 504 40,000  Level FlightAware ADS-B
Mon 05:04:14 AM 34.8370 133.9150 256° West 438 504 40,000  Level FlightAware ADS-B
Mon 05:05:24 AM 34.8010 133.7450 256° West 440 506 40,000  Level FlightAware ADS-B
Mon 05:06:19 AM 34.7730 133.6140 255° West 440 506 40,000  Level FlightAware ADS-B
Mon 05:07:14 AM 34.7430 133.4830 254° West 441 507 40,000  Level FlightAware ADS-B
Mon 05:07:52 AM 34.7170 133.3930 251° West 444 511 40,000  Level FlightAware ADS-B
Mon 05:08:37 AM 34.6830 133.2890 248° West 446 513 40,000  Level FlightAware ADS-B
Mon 05:09:23 AM 34.6460 133.1830 247° West 448 516 40,000  Level FlightAware ADS-B
Mon 05:10:07 AM 34.6120 133.0810 248° West 447 514 40,000  Level FlightAware ADS-B
Mon 05:10:54 AM 34.5750 132.9710 248° West 447 514 40,000  Level FlightAware ADS-B
Mon 05:11:54 AM 34.5290 132.8340 248° West 445 512 40,000  Level FlightAware ADS-B
Mon 05:12:35 AM 34.4970 132.7380 248° West 442 509 40,000  Level FlightAware ADS-B
Mon 05:13:10 AM 34.4720 132.6630 248° West 442 509 40,000  Level FlightAware ADS-B
Mon 05:13:50 AM 34.4390 132.5650 248° West 442 509 40,000  Level FlightAware ADS-B
Mon 05:14:25 AM 34.4110 132.4840 247° West 442 509 40,000  Level FlightAware ADS-B
Mon 05:14:55 AM 34.3890 132.4180 248° West 443 510 40,000  Level FlightAware ADS-B
Mon 05:15:42 AM 34.3510 132.3070 248° West 447 514 40,000  Level FlightAware ADS-B
Mon 05:16:27 AM 34.3150 132.2020 247° West 447 514 40,000  Level FlightAware ADS-B
Mon 05:17:07 AM 34.2840 132.1100 248° West 448 516 40,000  Level FlightAware ADS-B
Mon 05:17:47 AM 34.2520 132.0180 247° West 450 518 40,000  Level FlightAware ADS-B
Mon 05:18:27 AM 34.2210 131.9270 248° West 450 518 40,000  Level FlightAware ADS-B
Mon 05:19:07 AM 34.1870 131.8310 247° West 451 519 40,000  Level FlightAware ADS-B
Mon 05:19:54 AM 34.1500 131.7240 247° West 452 520 40,000  Level FlightAware ADS-B
Mon 05:20:19 AM 34.1300 131.6660 247° West 452 520 40,000  Level FlightAware ADS-B
Mon 05:21:02 AM 34.0970 131.5720 247° West 453 521 40,000  Level FlightAware ADS-B
Mon 05:21:34 AM 34.0690 131.4910 247° West 453 521 40,000  Level FlightAware ADS-B
Mon 05:22:14 AM 34.0360 131.3980 247° West 453 521 40,000  Level FlightAware ADS-B
Mon 05:22:54 AM 34.0030 131.3040 247° West 453 521 40,000  Level FlightAware ADS-B
Mon 05:23:35 AM 33.9710 131.2130 247° West 455 524 40,000  Level FlightAware ADS-B
Mon 05:24:04 AM 33.9460 131.1420 247° West 456 525 40,000  Level FlightAware ADS-B
Mon 05:24:44 AM 33.9120 131.0480 246° West 460 529 40,000  Level FlightAware ADS-B
Mon 05:25:39 AM 33.8670 130.9180 247° West 461 531 40,000  Level FlightAware ADS-B
Mon 05:26:19 AM 33.8320 130.8230 246° West 463 533 40,000  Level FlightAware ADS-B
Mon 05:26:59 AM 33.7980 130.7270 247° West 466 536 40,000  Level FlightAware ADS-B
Mon 05:27:29 AM 33.7740 130.6590 247° West 467 537 40,000  Level FlightAware ADS-B
Mon 05:28:09 AM 33.7390 130.5640 246° West 467 537 40,000  Level FlightAware ADS-B
Mon 05:28:49 AM 33.7040 130.4650 247° West 468 539 40,000  Level FlightAware ADS-B
Mon 05:29:31 AM 33.6680 130.3670 246° West 471 542 40,000  Level FlightAware ADS-B
Mon 05:30:30 AM 33.6200 130.2210 248° West 466 536 40,000  Level FlightAware ADS-B
Mon 05:31:10 AM 33.5900 130.1260 249° West 468 539 40,000  Level FlightAware ADS-B
Mon 05:31:40 AM 33.5660 130.0500 249° West 467 537 40,000  Level FlightAware ADS-B
Mon 05:32:25 AM 33.5330 129.9460 249° West 468 539 40,000  Level FlightAware ADS-B
Mon 05:33:16 AM 33.4940 129.8200 250° West 467 537 40,000  Level FlightAware ADS-B
Mon 05:33:45 AM 33.4720 129.7510 249° West 466 536 40,000  Level FlightAware ADS-B
Mon 05:34:26 AM 33.4410 129.6540 249° West 466 536 40,000  Level FlightAware ADS-B
Mon 05:35:00 AM 33.4150 129.5740 249° West 466 536 40,000  Level FlightAware ADS-B
Mon 05:35:36 AM 33.3850 129.4820 249° West 466 536 40,000  Level FlightAware ADS-B
Mon 05:36:30 AM 33.3440 129.3530 249° West 466 536 40,000  Level FlightAware ADS-B
Mon 05:37:20 AM 33.3040 129.2300 249° West 466 536 40,000  Level FlightAware ADS-B
Mon 05:37:50 AM 33.2800 129.1560 249° West 466 536 40,000  Level FlightAware ADS-B
Mon 05:38:42 AM 33.2380 129.0300 248° West 470 541 40,000  Level FlightAware ADS-B
Mon 05:39:20 AM 33.2120 128.9520 248° West 470 541 40,000  Level FlightAware ADS-B
Mon 05:40:32 AM 33.1620 128.8050 248° West 470 541 40,000  Level FlightAware ADS-B
Mon 05:41:33 AM 33.1200 128.6800 248° West 470 541 40,000  Level FlightAware ADS-B
Mon 05:42:33 AM 33.0780 128.5570 248° West 470 541 40,000  Level FlightAware ADS-B
Mon 05:43:10 AM 33.0530 128.4820 248° West 470 541 40,000  Level FlightAware ADS-B
Mon 05:43:56 AM 33.0210 128.3880 248° West 470 541 40,000  Level FlightAware ADS-B
Mon 05:44:57 AM 32.9790 128.2630 248° West 470 541 40,000  Level FlightAware ADS-B
Mon 05:45:57 AM 32.9370 128.1400 248° West 470 541 40,000  Level FlightAware ADS-B
Mon 05:46:33 AM 32.9120 128.0670 248° West 470 541 40,000  Level FlightAware ADS-B
Mon 05:47:10 AM 32.8870 127.9910 249° West 470 541 40,000  Level FlightAware ADS-B
Mon 05:48:22 AM 32.8370 127.8440 248° West 470 541 40,000 -695 Level FlightAware ADS-B
Mon 05:51:00 AM 32.7406 127.4629 253° West  Level Estimated
Mon 05:52:00 AM 32.7037 127.3184 253° West  Level Estimated
Mon 05:53:00 AM 32.6666 127.1741 253° West  Level Estimated
Mon 05:54:00 AM 32.6293 127.0298 253° West  Level Estimated
Mon 05:55:00 AM 32.5919 126.8857 253° West  Level Estimated
Mon 05:56:00 AM 32.5544 126.7417 253° West  Level Estimated
Mon 05:57:00 AM 32.5166 126.5978 253° West  Level Estimated
Mon 05:58:00 AM 32.4787 126.4540 253° West  Level Estimated
Mon 05:59:00 AM 32.4407 126.3104 253° West  Level Estimated
Mon 06:00:00 AM 32.4024 126.1668 253° West  Level Estimated
Mon 06:01:00 AM 32.3640 126.0234 252° West  Level Estimated
Mon 06:02:00 AM 32.3255 125.8801 252° West  Level Estimated
Mon 06:03:00 AM 32.2868 125.7370 252° West  Level Estimated
Mon 06:04:00 AM 32.2479 125.5939 252° West  Level Estimated
Mon 06:05:00 AM 32.2088 125.4510 252° West  Level Estimated
Mon 06:06:00 AM 32.1696 125.3082 252° West  Level Estimated
Mon 06:07:00 AM 32.1303 125.1656 252° West  Level Estimated
Mon 06:08:00 AM 32.0908 125.0230 252° West  Level Estimated
Mon 06:09:00 AM 32.0511 124.8806 252° West  Level Estimated
Mon 06:10:00 AM 32.0112 124.7383 252° West  Level Estimated
Mon 06:11:00 AM 31.9712 124.5961 252° West  Level Estimated
Mon 06:12:00 AM 31.9311 124.4540 252° West  Level Estimated
Mon 06:13:00 AM 31.8908 124.3121 252° West  Level Estimated
Mon 06:14:00 AM 31.8503 124.1703 251° West  Level Estimated
Mon 06:15:00 AM 31.8097 124.0286 251° West  Level Estimated
Mon 06:16:00 AM 31.7689 123.8871 251° West  Level Estimated
Mon 06:17:00 AM 31.7280 123.7456 251° West  Level Estimated
Mon 06:18:00 AM 31.6869 123.6043 251° West  Level Estimated
Mon 06:19:00 AM 31.6456 123.4631 251° West  Level Estimated
Mon 06:20:00 AM 31.6042 123.3221 251° West  Level Estimated
Mon 06:21:00 AM 31.5626 123.1812 251° West  Level Estimated
Mon 06:22:00 AM 31.5209 123.0404 251° West  Level Estimated
Mon 06:23:00 AM 31.4791 122.8997 251° West  Level Estimated
Mon 06:24:00 AM 31.4370 122.7591 251° West  Level Estimated
Mon 06:25:00 AM 31.3949 122.6187 251° West  Level Estimated
Mon 06:26:00 AM 31.3525 122.4784 251° West  Level Estimated
Mon 06:27:00 AM 31.3100 122.3382 251° West  Level Estimated
Mon 06:27:43 AM 31.2310 122.2560 250° West 277 319 11,800  Level FlightAware ADS-B
Mon 06:28:00 AM 31.2674 122.1982 250° West  Level Estimated
Mon 06:28:57 AM 31.2190 122.1480 263° West 273 314 10,300  Level FlightAware ADS-B
Mon 06:29:00 AM 31.2246 122.0583 250° West  Level Estimated
Mon 06:29:29 AM 31.2210 122.1040 273° West 273 314 10,100  Level FlightAware ADS-B
Mon 06:30:59 AM 31.2280 121.9850 274° West 274 315 10,000 -47 Descending FlightAware ADS-B
Mon 06:31:37 AM 31.2370 121.9090 278° West 276 318 10,000 -207 Level FlightAware ADS-B
Mon 06:31:57 AM 31.2390 121.8820 275° West 272 313 9,800 -267 Descending FlightAware ADS-B
Mon 06:32:22 AM 31.2400 121.8510 272° West 272 313 9,800 -494 Level FlightAware ADS-B
Mon 06:33:22 AM 31.2420 121.7630 272° West 234 269 9,100 -771 Descending FlightAware ADS-B
Mon 06:33:32 AM 31.2390 121.7550 246° West 223 257 8,900 -348 Descending FlightAware ADS-B
Mon 06:34:31 AM 31.2240 121.6970 253° West 223 257 8,700 -126 Descending FlightAware ADS-B
Mon 06:35:07 AM 31.2150 121.6620 253° West 223 257 8,700 -590 Level FlightAware ADS-B
Mon 06:35:32 AM 31.2350 121.6280 305° West 230 265 8,100 -1,371 Descending FlightAware ADS-B
Mon 06:35:42 AM 31.2450 121.6250 346° North 230 265 7,900 -1,200 Descending FlightAware ADS-B
Mon 06:35:57 AM 31.2650 121.6200 348° North 232 267 7,600 -857 Descending FlightAware ADS-B
Mon 06:36:17 AM 31.2850 121.6150 348° North 216 249 7,400 -900 Descending FlightAware ADS-B
Mon 06:36:37 AM 31.3060 121.6100 349° North 214 246 7,000 -1,077 Descending FlightAware ADS-B
Mon 06:36:56 AM 31.3240 121.6060 349° North 200 230 6,700 -1,080 Descending FlightAware ADS-B
Mon 06:37:27 AM 31.3530 121.6000 350° North 195 224 6,100 -1,059 Descending FlightAware ADS-B
Mon 06:37:47 AM 31.3720 121.5960 350° North 197 227 5,800 -840 Descending FlightAware ADS-B
Mon 06:38:17 AM 31.3950 121.5910 349° North 179 206 5,400 -960 Descending FlightAware ADS-B
Mon 06:38:37 AM 31.4150 121.5860 348° North 179 206 5,000 -1,200 Descending FlightAware ADS-B
Mon 06:38:57 AM 31.4290 121.5830 350° North 180 207 4,600 -1,200 Descending FlightAware ADS-B
Mon 06:39:17 AM 31.4470 121.5790 349° North 179 206 4,200 -545 Descending FlightAware ADS-B
Mon 06:39:52 AM 31.4670 121.6000 42° Northeast 199 229 4,100 -80 Descending FlightAware ADS-B
Mon 06:40:32 AM 31.4510 121.6420 114° Southeast 195 224 4,100  Level FlightAware ADS-B
Mon 06:40:52 AM 31.4410 121.6610 122° Southeast 199 229 4,100  Level FlightAware ADS-B
Mon 06:41:12 AM 31.4300 121.6770 129° Southeast 189 217 4,100  Level FlightAware ADS-B
Mon 06:41:22 AM 31.4220 121.6820 152° Southeast 194 223 4,100  Level FlightAware ADS-B
Mon 06:41:42 AM 31.4040 121.6880 164° South 185 213 4,100  Level FlightAware ADS-B
Mon 06:42:02 AM 31.3880 121.6950 160° South 187 215 4,100  Level FlightAware ADS-B
Mon 06:42:22 AM 31.3700 121.7020 162° South 186 214 4,100 -222 Level FlightAware ADS-B
Mon 06:42:56 AM 31.3420 121.7120 163° South 189 217 3,900 -600 Descending FlightAware ADS-B
Mon 06:43:12 AM 31.3270 121.7180 161° South 187 215 3,600 -1,000 Descending FlightAware ADS-B
Mon 06:43:32 AM 31.3120 121.7240 161° South 185 213 3,300 -492 Descending FlightAware ADS-B
Mon 06:44:13 AM 31.2830 121.7350 162° South 185 213 3,100 -701 Descending FlightAware ADS-B
Mon 06:45:49 AM 31.2140 121.7610 161° South 141 162 1,700 -875 Descending FlightAware ADS-B
Mon 06:46:00 AM 31.1428 121.7924 161° South  Level Estimated

Login

Don't have an account? Register now (free) for customized features, flight alerts, and more!